<?xml version="1.0" encoding="UTF-8" standalone="no" ?>
<gpx xmlns="http://www.topografix.com/GPX/1/1" xmlns:xsi="http://www.w3.org/2001/XMLSchema-instance" xsi:schemaLocation="http://www.topografix.com/GPX/1/1 http://www.topografix.com/GPX/1/1/gpx.xsd" version="1.1" creator="VisuGPX - https://www.visugpx.com">
  <metadata>
    <name>2017 12 16 granges de Lurgues</name>
    <desc><![CDATA[Reconnaissance avec Paul. Départ Aulon car route bloquée au delà.]]></desc>
  </metadata>
  <trk>
    <name><![CDATA[Tracé actuel: 26 NOV 2017 12:22]]></name>
    <trkseg>
  </trk>
  <trk>
    <name><![CDATA[Tracé actuel: 16 DEC 2017 15:54]]></name>
    <trkseg>
      <trkpt lat="42.85108" lon="0.29618">
        <ele>1144.59</ele>
        <time>2017-12-16T14:54:40Z</time>
      </trkpt>
      <trkpt lat="42.8511" lon="0.29614">
        <ele>1148.43</ele>
        <time>2017-12-16T14:54:48Z</time>
      </trkpt>
      <trkpt lat="42.85111" lon="0.29632">
        <ele>1152.28</ele>
        <time>2017-12-16T14:54:51Z</time>
      </trkpt>
      <trkpt lat="42.85111" lon="0.29634">
        <ele>1156.6</ele>
        <time>2017-12-16T14:54:54Z</time>
      </trkpt>
      <trkpt lat="42.85111" lon="0.29636">
        <ele>1162.37</ele>
        <time>2017-12-16T14:54:57Z</time>
      </trkpt>
      <trkpt lat="42.85111" lon="0.29638">
        <ele>1166.22</ele>
        <time>2017-12-16T14:55:00Z</time>
      </trkpt>
      <trkpt lat="42.85111" lon="0.29636">
        <ele>1169.58</ele>
        <time>2017-12-16T14:55:03Z</time>
      </trkpt>
      <trkpt lat="42.85111" lon="0.29636">
        <ele>1171.98</ele>
        <time>2017-12-16T14:55:05Z</time>
      </trkpt>
      <trkpt lat="42.8511" lon="0.2964">
        <ele>1174.87</ele>
        <time>2017-12-16T14:55:10Z</time>
      </trkpt>
      <trkpt lat="42.8511" lon="0.29639">
        <ele>1180.64</ele>
        <time>2017-12-16T14:55:14Z</time>
      </trkpt>
      <trkpt lat="42.85111" lon="0.29641">
        <ele>1184</ele>
        <time>2017-12-16T14:55:18Z</time>
      </trkpt>
      <trkpt lat="42.85111" lon="0.29642">
        <ele>1187.37</ele>
        <time>2017-12-16T14:55:22Z</time>
      </trkpt>
      <trkpt lat="42.85111" lon="0.29642">
        <ele>1190.73</ele>
        <time>2017-12-16T14:55:26Z</time>
      </trkpt>
      <trkpt lat="42.8511" lon="0.29644">
        <ele>1194.09</ele>
        <time>2017-12-16T14:55:31Z</time>
      </trkpt>
      <trkpt lat="42.85111" lon="0.29643">
        <ele>1197.46</ele>
        <time>2017-12-16T14:55:37Z</time>
      </trkpt>
      <trkpt lat="42.85113" lon="0.29641">
        <ele>1200.82</ele>
        <time>2017-12-16T14:55:43Z</time>
      </trkpt>
      <trkpt lat="42.85112" lon="0.29641">
        <ele>1206.11</ele>
        <time>2017-12-16T14:55:51Z</time>
      </trkpt>
      <trkpt lat="42.85109" lon="0.2964">
        <ele>1209.48</ele>
        <time>2017-12-16T14:56:12Z</time>
      </trkpt>
      <trkpt lat="42.85106" lon="0.29639">
        <ele>1212.36</ele>
        <time>2017-12-16T14:56:28Z</time>
      </trkpt>
      <trkpt lat="42.8511" lon="0.29643">
        <ele>1214.76</ele>
        <time>2017-12-16T14:56:49Z</time>
      </trkpt>
      <trkpt lat="42.85111" lon="0.29644">
        <ele>1213.8</ele>
        <time>2017-12-16T14:57:09Z</time>
      </trkpt>
      <trkpt lat="42.85108" lon="0.29644">
        <ele>1213.8</ele>
        <time>2017-12-16T14:57:21Z</time>
      </trkpt>
      <trkpt lat="42.85108" lon="0.29646">
        <ele>1213.8</ele>
        <time>2017-12-16T14:57:40Z</time>
      </trkpt>
      <trkpt lat="42.85111" lon="0.29638">
        <ele>1213.8</ele>
        <time>2017-12-16T14:57:50Z</time>
      </trkpt>
      <trkpt lat="42.8511" lon="0.29632">
        <ele>1213.8</ele>
        <time>2017-12-16T14:58:03Z</time>
      </trkpt>
      <trkpt lat="42.85113" lon="0.29623">
        <ele>1213.8</ele>
        <time>2017-12-16T14:58:13Z</time>
      </trkpt>
      <trkpt lat="42.85117" lon="0.29614">
        <ele>1213.8</ele>
        <time>2017-12-16T14:58:20Z</time>
      </trkpt>
      <trkpt lat="42.85117" lon="0.29604">
        <ele>1215.24</ele>
        <time>2017-12-16T14:58:31Z</time>
      </trkpt>
      <trkpt lat="42.85117" lon="0.29595">
        <ele>1215.24</ele>
        <time>2017-12-16T14:58:44Z</time>
      </trkpt>
      <trkpt lat="42.85116" lon="0.29593">
        <ele>1215.24</ele>
        <time>2017-12-16T14:58:47Z</time>
      </trkpt>
      <trkpt lat="42.85116" lon="0.29587">
        <ele>1215.24</ele>
        <time>2017-12-16T14:58:52Z</time>
      </trkpt>
      <trkpt lat="42.85116" lon="0.29584">
        <ele>1215.24</ele>
        <time>2017-12-16T14:58:54Z</time>
      </trkpt>
      <trkpt lat="42.85128" lon="0.29564">
        <ele>1216.69</ele>
        <time>2017-12-16T14:59:11Z</time>
      </trkpt>
      <trkpt lat="42.8513" lon="0.29559">
        <ele>1217.17</ele>
        <time>2017-12-16T14:59:16Z</time>
      </trkpt>
      <trkpt lat="42.85135" lon="0.29555">
        <ele>1218.13</ele>
        <time>2017-12-16T14:59:22Z</time>
      </trkpt>
      <trkpt lat="42.85138" lon="0.29552">
        <ele>1219.09</ele>
        <time>2017-12-16T14:59:25Z</time>
      </trkpt>
      <trkpt lat="42.85141" lon="0.29542">
        <ele>1219.09</ele>
        <time>2017-12-16T14:59:37Z</time>
      </trkpt>
      <trkpt lat="42.85145" lon="0.29538">
        <ele>1220.05</ele>
        <time>2017-12-16T14:59:49Z</time>
      </trkpt>
      <trkpt lat="42.85146" lon="0.29539">
        <ele>1221.49</ele>
        <time>2017-12-16T15:00:04Z</time>
      </trkpt>
      <trkpt lat="42.85145" lon="0.29539">
        <ele>1221.49</ele>
        <time>2017-12-16T15:00:06Z</time>
      </trkpt>
      <trkpt lat="42.85142" lon="0.29539">
        <ele>1220.05</ele>
        <time>2017-12-16T15:00:09Z</time>
      </trkpt>
      <trkpt lat="42.85139" lon="0.29537">
        <ele>1218.13</ele>
        <time>2017-12-16T15:00:19Z</time>
      </trkpt>
      <trkpt lat="42.85139" lon="0.29525">
        <ele>1216.69</ele>
        <time>2017-12-16T15:00:25Z</time>
      </trkpt>
      <trkpt lat="42.85139" lon="0.2952">
        <ele>1215.72</ele>
        <time>2017-12-16T15:00:28Z</time>
      </trkpt>
      <trkpt lat="42.85139" lon="0.29515">
        <ele>1215.72</ele>
        <time>2017-12-16T15:00:31Z</time>
      </trkpt>
      <trkpt lat="42.8514" lon="0.29492">
        <ele>1215.24</ele>
        <time>2017-12-16T15:00:44Z</time>
      </trkpt>
      <trkpt lat="42.85141" lon="0.29485">
        <ele>1215.24</ele>
        <time>2017-12-16T15:00:49Z</time>
      </trkpt>
      <trkpt lat="42.85141" lon="0.2948">
        <ele>1215.24</ele>
        <time>2017-12-16T15:00:52Z</time>
      </trkpt>
      <trkpt lat="42.85144" lon="0.29465">
        <ele>1217.17</ele>
        <time>2017-12-16T15:01:02Z</time>
      </trkpt>
      <trkpt lat="42.85147" lon="0.29444">
        <ele>1217.65</ele>
        <time>2017-12-16T15:01:15Z</time>
      </trkpt>
      <trkpt lat="42.85149" lon="0.29441">
        <ele>1218.13</ele>
        <time>2017-12-16T15:01:28Z</time>
      </trkpt>
      <trkpt lat="42.8515" lon="0.29441">
        <ele>1216.69</ele>
        <time>2017-12-16T15:01:31Z</time>
      </trkpt>
      <trkpt lat="42.85153" lon="0.29438">
        <ele>1218.13</ele>
        <time>2017-12-16T15:01:45Z</time>
      </trkpt>
      <trkpt lat="42.85153" lon="0.29441">
        <ele>1218.13</ele>
        <time>2017-12-16T15:02:01Z</time>
      </trkpt>
      <trkpt lat="42.85155" lon="0.29444">
        <ele>1218.13</ele>
        <time>2017-12-16T15:02:24Z</time>
      </trkpt>
      <trkpt lat="42.85152" lon="0.29441">
        <ele>1218.13</ele>
        <time>2017-12-16T15:02:41Z</time>
      </trkpt>
      <trkpt lat="42.85154" lon="0.29442">
        <ele>1218.13</ele>
        <time>2017-12-16T15:02:58Z</time>
      </trkpt>
      <trkpt lat="42.85152" lon="0.29443">
        <ele>1218.13</ele>
        <time>2017-12-16T15:03:11Z</time>
      </trkpt>
      <trkpt lat="42.85152" lon="0.29445">
        <ele>1218.13</ele>
        <time>2017-12-16T15:03:30Z</time>
      </trkpt>
      <trkpt lat="42.85153" lon="0.29444">
        <ele>1219.09</ele>
        <time>2017-12-16T15:03:55Z</time>
      </trkpt>
      <trkpt lat="42.85151" lon="0.29443">
        <ele>1219.09</ele>
        <time>2017-12-16T15:04:07Z</time>
      </trkpt>
      <trkpt lat="42.85152" lon="0.29441">
        <ele>1219.09</ele>
        <time>2017-12-16T15:04:23Z</time>
      </trkpt>
      <trkpt lat="42.85152" lon="0.29442">
        <ele>1219.09</ele>
        <time>2017-12-16T15:04:24Z</time>
      </trkpt>
      <trkpt lat="42.85152" lon="0.29437">
        <ele>1219.09</ele>
        <time>2017-12-16T15:04:28Z</time>
      </trkpt>
      <trkpt lat="42.85152" lon="0.29429">
        <ele>1219.09</ele>
        <time>2017-12-16T15:04:34Z</time>
      </trkpt>
      <trkpt lat="42.8515" lon="0.29421">
        <ele>1219.09</ele>
        <time>2017-12-16T15:04:41Z</time>
      </trkpt>
      <trkpt lat="42.8515" lon="0.29412">
        <ele>1219.09</ele>
        <time>2017-12-16T15:04:47Z</time>
      </trkpt>
      <trkpt lat="42.8515" lon="0.29408">
        <ele>1219.09</ele>
        <time>2017-12-16T15:04:56Z</time>
      </trkpt>
      <trkpt lat="42.8515" lon="0.29405">
        <ele>1219.09</ele>
        <time>2017-12-16T15:04:58Z</time>
      </trkpt>
      <trkpt lat="42.85148" lon="0.29386">
        <ele>1219.09</ele>
        <time>2017-12-16T15:05:11Z</time>
      </trkpt>
      <trkpt lat="42.85147" lon="0.29374">
        <ele>1219.09</ele>
        <time>2017-12-16T15:05:23Z</time>
      </trkpt>
      <trkpt lat="42.85143" lon="0.2936">
        <ele>1219.09</ele>
        <time>2017-12-16T15:05:32Z</time>
      </trkpt>
      <trkpt lat="42.8514" lon="0.29352">
        <ele>1219.57</ele>
        <time>2017-12-16T15:05:38Z</time>
      </trkpt>
      <trkpt lat="42.85136" lon="0.29335">
        <ele>1220.53</ele>
        <time>2017-12-16T15:05:49Z</time>
      </trkpt>
      <trkpt lat="42.85132" lon="0.29328">
        <ele>1220.05</ele>
        <time>2017-12-16T15:05:55Z</time>
      </trkpt>
      <trkpt lat="42.85125" lon="0.29311">
        <ele>1219.57</ele>
        <time>2017-12-16T15:06:07Z</time>
      </trkpt>
      <trkpt lat="42.85123" lon="0.29303">
        <ele>1219.57</ele>
        <time>2017-12-16T15:06:14Z</time>
      </trkpt>
      <trkpt lat="42.8512" lon="0.2929">
        <ele>1219.57</ele>
        <time>2017-12-16T15:06:24Z</time>
      </trkpt>
      <trkpt lat="42.85119" lon="0.29289">
        <ele>1219.57</ele>
        <time>2017-12-16T15:06:25Z</time>
      </trkpt>
      <trkpt lat="42.85118" lon="0.29286">
        <ele>1221.01</ele>
        <time>2017-12-16T15:06:27Z</time>
      </trkpt>
      <trkpt lat="42.85114" lon="0.29272">
        <ele>1221.49</ele>
        <time>2017-12-16T15:06:40Z</time>
      </trkpt>
      <trkpt lat="42.85112" lon="0.29259">
        <ele>1223.42</ele>
        <time>2017-12-16T15:06:54Z</time>
      </trkpt>
      <trkpt lat="42.8511" lon="0.29249">
        <ele>1224.86</ele>
        <time>2017-12-16T15:07:04Z</time>
      </trkpt>
      <trkpt lat="42.85109" lon="0.29237">
        <ele>1226.3</ele>
        <time>2017-12-16T15:07:16Z</time>
      </trkpt>
      <trkpt lat="42.85108" lon="0.29225">
        <ele>1227.74</ele>
        <time>2017-12-16T15:07:28Z</time>
      </trkpt>
      <trkpt lat="42.85106" lon="0.29214">
        <ele>1228.7</ele>
        <time>2017-12-16T15:07:40Z</time>
      </trkpt>
      <trkpt lat="42.85104" lon="0.29203">
        <ele>1230.14</ele>
        <time>2017-12-16T15:07:53Z</time>
      </trkpt>
      <trkpt lat="42.85102" lon="0.29196">
        <ele>1230.62</ele>
        <time>2017-12-16T15:08:02Z</time>
      </trkpt>
      <trkpt lat="42.851" lon="0.29184">
        <ele>1232.07</ele>
        <time>2017-12-16T15:08:15Z</time>
      </trkpt>
      <trkpt lat="42.851" lon="0.29179">
        <ele>1233.03</ele>
        <time>2017-12-16T15:08:22Z</time>
      </trkpt>
      <trkpt lat="42.85094" lon="0.29167">
        <ele>1234.47</ele>
        <time>2017-12-16T15:08:34Z</time>
      </trkpt>
      <trkpt lat="42.85091" lon="0.29161">
        <ele>1235.43</ele>
        <time>2017-12-16T15:08:44Z</time>
      </trkpt>
      <trkpt lat="42.85085" lon="0.29149">
        <ele>1236.87</ele>
        <time>2017-12-16T15:08:56Z</time>
      </trkpt>
      <trkpt lat="42.85085" lon="0.2914">
        <ele>1237.83</ele>
        <time>2017-12-16T15:09:09Z</time>
      </trkpt>
      <trkpt lat="42.85084" lon="0.29136">
        <ele>1238.32</ele>
        <time>2017-12-16T15:09:15Z</time>
      </trkpt>
      <trkpt lat="42.85082" lon="0.29129">
        <ele>1239.28</ele>
        <time>2017-12-16T15:09:23Z</time>
      </trkpt>
      <trkpt lat="42.85078" lon="0.29121">
        <ele>1240.72</ele>
        <time>2017-12-16T15:09:37Z</time>
      </trkpt>
      <trkpt lat="42.85075" lon="0.29109">
        <ele>1241.68</ele>
        <time>2017-12-16T15:09:49Z</time>
      </trkpt>
      <trkpt lat="42.85071" lon="0.29101">
        <ele>1243.6</ele>
        <time>2017-12-16T15:10:01Z</time>
      </trkpt>
      <trkpt lat="42.85067" lon="0.29091">
        <ele>1245.04</ele>
        <time>2017-12-16T15:10:16Z</time>
      </trkpt>
      <trkpt lat="42.85065" lon="0.29084">
        <ele>1246.01</ele>
        <time>2017-12-16T15:10:27Z</time>
      </trkpt>
      <trkpt lat="42.85062" lon="0.29076">
        <ele>1246.97</ele>
        <time>2017-12-16T15:10:38Z</time>
      </trkpt>
      <trkpt lat="42.85058" lon="0.29065">
        <ele>1248.89</ele>
        <time>2017-12-16T15:10:52Z</time>
      </trkpt>
      <trkpt lat="42.85056" lon="0.29056">
        <ele>1250.33</ele>
        <time>2017-12-16T15:11:05Z</time>
      </trkpt>
      <trkpt lat="42.85053" lon="0.29049">
        <ele>1251.29</ele>
        <time>2017-12-16T15:11:19Z</time>
      </trkpt>
      <trkpt lat="42.85051" lon="0.29042">
        <ele>1253.22</ele>
        <time>2017-12-16T15:11:32Z</time>
      </trkpt>
      <trkpt lat="42.85049" lon="0.29034">
        <ele>1254.66</ele>
        <time>2017-12-16T15:11:47Z</time>
      </trkpt>
      <trkpt lat="42.85049" lon="0.29034">
        <ele>1254.66</ele>
        <time>2017-12-16T15:11:48Z</time>
      </trkpt>
      <trkpt lat="42.85048" lon="0.2902">
        <ele>1255.14</ele>
        <time>2017-12-16T15:12:00Z</time>
      </trkpt>
      <trkpt lat="42.85053" lon="0.29009">
        <ele>1256.58</ele>
        <time>2017-12-16T15:12:12Z</time>
      </trkpt>
      <trkpt lat="42.85055" lon="0.29001">
        <ele>1258.02</ele>
        <time>2017-12-16T15:12:22Z</time>
      </trkpt>
      <trkpt lat="42.85057" lon="0.28991">
        <ele>1258.98</ele>
        <time>2017-12-16T15:12:33Z</time>
      </trkpt>
      <trkpt lat="42.85057" lon="0.2899">
        <ele>1258.98</ele>
        <time>2017-12-16T15:12:34Z</time>
      </trkpt>
      <trkpt lat="42.85057" lon="0.28987">
        <ele>1258.98</ele>
        <time>2017-12-16T15:12:36Z</time>
      </trkpt>
      <trkpt lat="42.85057" lon="0.2898">
        <ele>1259.46</ele>
        <time>2017-12-16T15:12:45Z</time>
      </trkpt>
      <trkpt lat="42.8506" lon="0.28971">
        <ele>1260.43</ele>
        <time>2017-12-16T15:12:56Z</time>
      </trkpt>
      <trkpt lat="42.85063" lon="0.28966">
        <ele>1260.43</ele>
        <time>2017-12-16T15:13:01Z</time>
      </trkpt>
      <trkpt lat="42.85065" lon="0.28952">
        <ele>1261.39</ele>
        <time>2017-12-16T15:13:14Z</time>
      </trkpt>
      <trkpt lat="42.85064" lon="0.28948">
        <ele>1261.39</ele>
        <time>2017-12-16T15:13:18Z</time>
      </trkpt>
      <trkpt lat="42.85065" lon="0.28947">
        <ele>1262.35</ele>
        <time>2017-12-16T15:13:31Z</time>
      </trkpt>
      <trkpt lat="42.85066" lon="0.28945">
        <ele>1262.35</ele>
        <time>2017-12-16T15:13:36Z</time>
      </trkpt>
      <trkpt lat="42.85066" lon="0.2894">
        <ele>1262.35</ele>
        <time>2017-12-16T15:13:40Z</time>
      </trkpt>
      <trkpt lat="42.85067" lon="0.28933">
        <ele>1263.31</ele>
        <time>2017-12-16T15:13:45Z</time>
      </trkpt>
      <trkpt lat="42.85067" lon="0.28922">
        <ele>1264.27</ele>
        <time>2017-12-16T15:13:54Z</time>
      </trkpt>
      <trkpt lat="42.85068" lon="0.28911">
        <ele>1265.23</ele>
        <time>2017-12-16T15:14:03Z</time>
      </trkpt>
      <trkpt lat="42.85069" lon="0.28902">
        <ele>1266.19</ele>
        <time>2017-12-16T15:14:14Z</time>
      </trkpt>
      <trkpt lat="42.85068" lon="0.28895">
        <ele>1266.67</ele>
        <time>2017-12-16T15:14:31Z</time>
      </trkpt>
      <trkpt lat="42.85069" lon="0.28892">
        <ele>1266.67</ele>
        <time>2017-12-16T15:14:34Z</time>
      </trkpt>
      <trkpt lat="42.85073" lon="0.28883">
        <ele>1268.12</ele>
        <time>2017-12-16T15:14:43Z</time>
      </trkpt>
      <trkpt lat="42.85074" lon="0.2888">
        <ele>1268.12</ele>
        <time>2017-12-16T15:14:46Z</time>
      </trkpt>
      <trkpt lat="42.85075" lon="0.28868">
        <ele>1269.56</ele>
        <time>2017-12-16T15:14:58Z</time>
      </trkpt>
      <trkpt lat="42.85076" lon="0.28865">
        <ele>1269.56</ele>
        <time>2017-12-16T15:15:00Z</time>
      </trkpt>
      <trkpt lat="42.85077" lon="0.28862">
        <ele>1270.04</ele>
        <time>2017-12-16T15:15:02Z</time>
      </trkpt>
      <trkpt lat="42.85079" lon="0.28849">
        <ele>1271.48</ele>
        <time>2017-12-16T15:15:15Z</time>
      </trkpt>
      <trkpt lat="42.85079" lon="0.28848">
        <ele>1271.48</ele>
        <time>2017-12-16T15:15:16Z</time>
      </trkpt>
      <trkpt lat="42.8508" lon="0.28846">
        <ele>1271.96</ele>
        <time>2017-12-16T15:15:18Z</time>
      </trkpt>
      <trkpt lat="42.85082" lon="0.28837">
        <ele>1272.44</ele>
        <time>2017-12-16T15:15:28Z</time>
      </trkpt>
      <trkpt lat="42.85082" lon="0.28836">
        <ele>1272.44</ele>
        <time>2017-12-16T15:15:29Z</time>
      </trkpt>
      <trkpt lat="42.85082" lon="0.28826">
        <ele>1272.92</ele>
        <time>2017-12-16T15:15:41Z</time>
      </trkpt>
      <trkpt lat="42.85082" lon="0.28824">
        <ele>1272.92</ele>
        <time>2017-12-16T15:15:43Z</time>
      </trkpt>
      <trkpt lat="42.85082" lon="0.28813">
        <ele>1273.88</ele>
        <time>2017-12-16T15:15:56Z</time>
      </trkpt>
      <trkpt lat="42.85083" lon="0.28809">
        <ele>1273.88</ele>
        <time>2017-12-16T15:16:00Z</time>
      </trkpt>
      <trkpt lat="42.85085" lon="0.28796">
        <ele>1274.85</ele>
        <time>2017-12-16T15:16:13Z</time>
      </trkpt>
      <trkpt lat="42.85085" lon="0.28793">
        <ele>1274.85</ele>
        <time>2017-12-16T15:16:18Z</time>
      </trkpt>
      <trkpt lat="42.85087" lon="0.28785">
        <ele>1274.85</ele>
        <time>2017-12-16T15:16:25Z</time>
      </trkpt>
      <trkpt lat="42.85087" lon="0.28772">
        <ele>1275.33</ele>
        <time>2017-12-16T15:16:37Z</time>
      </trkpt>
      <trkpt lat="42.85087" lon="0.28765">
        <ele>1275.81</ele>
        <time>2017-12-16T15:16:45Z</time>
      </trkpt>
      <trkpt lat="42.85088" lon="0.28751">
        <ele>1276.77</ele>
        <time>2017-12-16T15:16:57Z</time>
      </trkpt>
      <trkpt lat="42.85089" lon="0.28743">
        <ele>1277.25</ele>
        <time>2017-12-16T15:17:05Z</time>
      </trkpt>
      <trkpt lat="42.8509" lon="0.28731">
        <ele>1277.73</ele>
        <time>2017-12-16T15:17:17Z</time>
      </trkpt>
      <trkpt lat="42.8509" lon="0.28721">
        <ele>1278.21</ele>
        <time>2017-12-16T15:17:26Z</time>
      </trkpt>
      <trkpt lat="42.85089" lon="0.28715">
        <ele>1278.69</ele>
        <time>2017-12-16T15:17:32Z</time>
      </trkpt>
      <trkpt lat="42.8509" lon="0.28704">
        <ele>1279.17</ele>
        <time>2017-12-16T15:17:43Z</time>
      </trkpt>
      <trkpt lat="42.8509" lon="0.28702">
        <ele>1279.65</ele>
        <time>2017-12-16T15:17:55Z</time>
      </trkpt>
      <trkpt lat="42.85091" lon="0.28699">
        <ele>1280.13</ele>
        <time>2017-12-16T15:18:10Z</time>
      </trkpt>
      <trkpt lat="42.851" lon="0.2869">
        <ele>1281.57</ele>
        <time>2017-12-16T15:18:21Z</time>
      </trkpt>
      <trkpt lat="42.85104" lon="0.28683">
        <ele>1282.54</ele>
        <time>2017-12-16T15:18:28Z</time>
      </trkpt>
      <trkpt lat="42.85107" lon="0.28679">
        <ele>1282.54</ele>
        <time>2017-12-16T15:18:35Z</time>
      </trkpt>
      <trkpt lat="42.8511" lon="0.28669">
        <ele>1283.5</ele>
        <time>2017-12-16T15:18:47Z</time>
      </trkpt>
      <trkpt lat="42.85111" lon="0.28665">
        <ele>1283.98</ele>
        <time>2017-12-16T15:18:51Z</time>
      </trkpt>
      <trkpt lat="42.85115" lon="0.28655">
        <ele>1284.46</ele>
        <time>2017-12-16T15:19:02Z</time>
      </trkpt>
      <trkpt lat="42.8512" lon="0.28642">
        <ele>1285.42</ele>
        <time>2017-12-16T15:19:16Z</time>
      </trkpt>
      <trkpt lat="42.85124" lon="0.28632">
        <ele>1286.38</ele>
        <time>2017-12-16T15:19:28Z</time>
      </trkpt>
      <trkpt lat="42.85126" lon="0.28623">
        <ele>1287.34</ele>
        <time>2017-12-16T15:19:43Z</time>
      </trkpt>
      <trkpt lat="42.85126" lon="0.2862">
        <ele>1287.34</ele>
        <time>2017-12-16T15:19:46Z</time>
      </trkpt>
      <trkpt lat="42.85126" lon="0.28615">
        <ele>1287.82</ele>
        <time>2017-12-16T15:19:51Z</time>
      </trkpt>
      <trkpt lat="42.85129" lon="0.286">
        <ele>1288.3</ele>
        <time>2017-12-16T15:20:03Z</time>
      </trkpt>
      <trkpt lat="42.85131" lon="0.2859">
        <ele>1288.3</ele>
        <time>2017-12-16T15:20:13Z</time>
      </trkpt>
      <trkpt lat="42.85133" lon="0.28583">
        <ele>1288.78</ele>
        <time>2017-12-16T15:20:20Z</time>
      </trkpt>
      <trkpt lat="42.85133" lon="0.28569">
        <ele>1289.27</ele>
        <time>2017-12-16T15:20:32Z</time>
      </trkpt>
      <trkpt lat="42.85134" lon="0.28561">
        <ele>1289.75</ele>
        <time>2017-12-16T15:20:39Z</time>
      </trkpt>
      <trkpt lat="42.85134" lon="0.28547">
        <ele>1290.71</ele>
        <time>2017-12-16T15:20:52Z</time>
      </trkpt>
      <trkpt lat="42.85135" lon="0.28545">
        <ele>1290.71</ele>
        <time>2017-12-16T15:20:53Z</time>
      </trkpt>
      <trkpt lat="42.85136" lon="0.28539">
        <ele>1290.23</ele>
        <time>2017-12-16T15:20:58Z</time>
      </trkpt>
      <trkpt lat="42.85135" lon="0.28534">
        <ele>1290.71</ele>
        <time>2017-12-16T15:21:11Z</time>
      </trkpt>
      <trkpt lat="42.85137" lon="0.2853">
        <ele>1290.71</ele>
        <time>2017-12-16T15:21:24Z</time>
      </trkpt>
      <trkpt lat="42.85139" lon="0.28516">
        <ele>1291.67</ele>
        <time>2017-12-16T15:21:36Z</time>
      </trkpt>
      <trkpt lat="42.85141" lon="0.28503">
        <ele>1292.63</ele>
        <time>2017-12-16T15:21:48Z</time>
      </trkpt>
      <trkpt lat="42.85144" lon="0.28494">
        <ele>1292.63</ele>
        <time>2017-12-16T15:21:56Z</time>
      </trkpt>
      <trkpt lat="42.85146" lon="0.28482">
        <ele>1294.07</ele>
        <time>2017-12-16T15:22:08Z</time>
      </trkpt>
      <trkpt lat="42.8515" lon="0.28474">
        <ele>1294.55</ele>
        <time>2017-12-16T15:22:16Z</time>
      </trkpt>
      <trkpt lat="42.85155" lon="0.28461">
        <ele>1295.99</ele>
        <time>2017-12-16T15:22:29Z</time>
      </trkpt>
      <trkpt lat="42.85156" lon="0.28458">
        <ele>1295.99</ele>
        <time>2017-12-16T15:22:32Z</time>
      </trkpt>
      <trkpt lat="42.8516" lon="0.2845">
        <ele>1296.96</ele>
        <time>2017-12-16T15:22:44Z</time>
      </trkpt>
      <trkpt lat="42.85166" lon="0.28438">
        <ele>1297.44</ele>
        <time>2017-12-16T15:22:57Z</time>
      </trkpt>
      <trkpt lat="42.85167" lon="0.28432">
        <ele>1298.4</ele>
        <time>2017-12-16T15:23:10Z</time>
      </trkpt>
      <trkpt lat="42.85172" lon="0.28424">
        <ele>1299.36</ele>
        <time>2017-12-16T15:23:23Z</time>
      </trkpt>
      <trkpt lat="42.85173" lon="0.28421">
        <ele>1299.84</ele>
        <time>2017-12-16T15:23:26Z</time>
      </trkpt>
      <trkpt lat="42.85174" lon="0.28418">
        <ele>1299.84</ele>
        <time>2017-12-16T15:23:29Z</time>
      </trkpt>
      <trkpt lat="42.85176" lon="0.28413">
        <ele>1300.32</ele>
        <time>2017-12-16T15:23:32Z</time>
      </trkpt>
      <trkpt lat="42.85177" lon="0.28412">
        <ele>1300.32</ele>
        <time>2017-12-16T15:23:33Z</time>
      </trkpt>
      <trkpt lat="42.85178" lon="0.28409">
        <ele>1300.32</ele>
        <time>2017-12-16T15:23:35Z</time>
      </trkpt>
      <trkpt lat="42.85177" lon="0.28405">
        <ele>1300.8</ele>
        <time>2017-12-16T15:23:39Z</time>
      </trkpt>
      <trkpt lat="42.85177" lon="0.28402">
        <ele>1300.8</ele>
        <time>2017-12-16T15:23:41Z</time>
      </trkpt>
      <trkpt lat="42.85177" lon="0.28396">
        <ele>1301.28</ele>
        <time>2017-12-16T15:23:45Z</time>
      </trkpt>
      <trkpt lat="42.85176" lon="0.28393">
        <ele>1301.28</ele>
        <time>2017-12-16T15:23:48Z</time>
      </trkpt>
      <trkpt lat="42.85175" lon="0.28389">
        <ele>1301.76</ele>
        <time>2017-12-16T15:23:51Z</time>
      </trkpt>
      <trkpt lat="42.85173" lon="0.28384">
        <ele>1301.76</ele>
        <time>2017-12-16T15:23:56Z</time>
      </trkpt>
      <trkpt lat="42.85171" lon="0.28373">
        <ele>1302.24</ele>
        <time>2017-12-16T15:24:05Z</time>
      </trkpt>
      <trkpt lat="42.85169" lon="0.28366">
        <ele>1302.72</ele>
        <time>2017-12-16T15:24:16Z</time>
      </trkpt>
      <trkpt lat="42.85166" lon="0.28358">
        <ele>1303.2</ele>
        <time>2017-12-16T15:24:30Z</time>
      </trkpt>
      <trkpt lat="42.85164" lon="0.28353">
        <ele>1303.69</ele>
        <time>2017-12-16T15:24:34Z</time>
      </trkpt>
      <trkpt lat="42.85163" lon="0.28348">
        <ele>1303.69</ele>
        <time>2017-12-16T15:24:38Z</time>
      </trkpt>
      <trkpt lat="42.85161" lon="0.28338">
        <ele>1304.65</ele>
        <time>2017-12-16T15:24:48Z</time>
      </trkpt>
      <trkpt lat="42.85163" lon="0.28331">
        <ele>1305.13</ele>
        <time>2017-12-16T15:24:55Z</time>
      </trkpt>
      <trkpt lat="42.85164" lon="0.28328">
        <ele>1305.13</ele>
        <time>2017-12-16T15:24:57Z</time>
      </trkpt>
      <trkpt lat="42.85164" lon="0.28324">
        <ele>1305.61</ele>
        <time>2017-12-16T15:25:01Z</time>
      </trkpt>
      <trkpt lat="42.85166" lon="0.28317">
        <ele>1306.09</ele>
        <time>2017-12-16T15:25:13Z</time>
      </trkpt>
      <trkpt lat="42.85166" lon="0.28307">
        <ele>1307.05</ele>
        <time>2017-12-16T15:25:25Z</time>
      </trkpt>
      <trkpt lat="42.85168" lon="0.28302">
        <ele>1308.49</ele>
        <time>2017-12-16T15:25:36Z</time>
      </trkpt>
      <trkpt lat="42.85169" lon="0.283">
        <ele>1308.97</ele>
        <time>2017-12-16T15:25:38Z</time>
      </trkpt>
      <trkpt lat="42.8517" lon="0.28297">
        <ele>1308.97</ele>
        <time>2017-12-16T15:25:42Z</time>
      </trkpt>
      <trkpt lat="42.85173" lon="0.28287">
        <ele>1311.38</ele>
        <time>2017-12-16T15:25:54Z</time>
      </trkpt>
      <trkpt lat="42.85176" lon="0.28277">
        <ele>1312.82</ele>
        <time>2017-12-16T15:26:08Z</time>
      </trkpt>
      <trkpt lat="42.85178" lon="0.2827">
        <ele>1314.26</ele>
        <time>2017-12-16T15:26:20Z</time>
      </trkpt>
      <trkpt lat="42.8518" lon="0.28268">
        <ele>1315.22</ele>
        <time>2017-12-16T15:26:32Z</time>
      </trkpt>
      <trkpt lat="42.85178" lon="0.2827">
        <ele>1316.18</ele>
        <time>2017-12-16T15:26:59Z</time>
      </trkpt>
      <trkpt lat="42.85179" lon="0.28268">
        <ele>1316.18</ele>
        <time>2017-12-16T15:27:21Z</time>
      </trkpt>
      <trkpt lat="42.85183" lon="0.28255">
        <ele>1316.66</ele>
        <time>2017-12-16T15:27:37Z</time>
      </trkpt>
      <trkpt lat="42.85184" lon="0.28246">
        <ele>1317.62</ele>
        <time>2017-12-16T15:27:46Z</time>
      </trkpt>
      <trkpt lat="42.85182" lon="0.2824">
        <ele>1319.07</ele>
        <time>2017-12-16T15:27:56Z</time>
      </trkpt>
      <trkpt lat="42.85178" lon="0.28229">
        <ele>1320.03</ele>
        <time>2017-12-16T15:28:07Z</time>
      </trkpt>
      <trkpt lat="42.85172" lon="0.28221">
        <ele>1320.99</ele>
        <time>2017-12-16T15:28:18Z</time>
      </trkpt>
      <trkpt lat="42.85171" lon="0.28218">
        <ele>1321.47</ele>
        <time>2017-12-16T15:28:20Z</time>
      </trkpt>
      <trkpt lat="42.85171" lon="0.28215">
        <ele>1321.47</ele>
        <time>2017-12-16T15:28:23Z</time>
      </trkpt>
      <trkpt lat="42.85168" lon="0.28207">
        <ele>1322.43</ele>
        <time>2017-12-16T15:28:33Z</time>
      </trkpt>
      <trkpt lat="42.85162" lon="0.282">
        <ele>1323.39</ele>
        <time>2017-12-16T15:28:46Z</time>
      </trkpt>
      <trkpt lat="42.8516" lon="0.2819">
        <ele>1324.35</ele>
        <time>2017-12-16T15:28:58Z</time>
      </trkpt>
      <trkpt lat="42.85155" lon="0.28184">
        <ele>1325.31</ele>
        <time>2017-12-16T15:29:08Z</time>
      </trkpt>
      <trkpt lat="42.85151" lon="0.28178">
        <ele>1326.28</ele>
        <time>2017-12-16T15:29:19Z</time>
      </trkpt>
      <trkpt lat="42.8515" lon="0.28176">
        <ele>1326.76</ele>
        <time>2017-12-16T15:29:23Z</time>
      </trkpt>
      <trkpt lat="42.85141" lon="0.28167">
        <ele>1328.2</ele>
        <time>2017-12-16T15:29:38Z</time>
      </trkpt>
      <trkpt lat="42.85138" lon="0.28162">
        <ele>1329.64</ele>
        <time>2017-12-16T15:29:49Z</time>
      </trkpt>
      <trkpt lat="42.85139" lon="0.28156">
        <ele>1329.64</ele>
        <time>2017-12-16T15:30:11Z</time>
      </trkpt>
      <trkpt lat="42.85137" lon="0.28153">
        <ele>1330.6</ele>
        <time>2017-12-16T15:30:23Z</time>
      </trkpt>
      <trkpt lat="42.85135" lon="0.28154">
        <ele>1331.08</ele>
        <time>2017-12-16T15:30:44Z</time>
      </trkpt>
      <trkpt lat="42.85134" lon="0.28156">
        <ele>1332.04</ele>
        <time>2017-12-16T15:31:12Z</time>
      </trkpt>
      <trkpt lat="42.85136" lon="0.28154">
        <ele>1332.04</ele>
        <time>2017-12-16T15:31:14Z</time>
      </trkpt>
      <trkpt lat="42.85138" lon="0.28141">
        <ele>1333.01</ele>
        <time>2017-12-16T15:31:27Z</time>
      </trkpt>
      <trkpt lat="42.8514" lon="0.28139">
        <ele>1333.01</ele>
        <time>2017-12-16T15:31:42Z</time>
      </trkpt>
      <trkpt lat="42.85136" lon="0.28137">
        <ele>1333.49</ele>
        <time>2017-12-16T15:31:58Z</time>
      </trkpt>
      <trkpt lat="42.85135" lon="0.28139">
        <ele>1333.97</ele>
        <time>2017-12-16T15:32:20Z</time>
      </trkpt>
      <trkpt lat="42.85131" lon="0.28136">
        <ele>1333.49</ele>
        <time>2017-12-16T15:32:47Z</time>
      </trkpt>
      <trkpt lat="42.85129" lon="0.28137">
        <ele>1334.93</ele>
        <time>2017-12-16T15:32:50Z</time>
      </trkpt>
      <trkpt lat="42.85125" lon="0.28143">
        <ele>1336.37</ele>
        <time>2017-12-16T15:33:02Z</time>
      </trkpt>
      <trkpt lat="42.85119" lon="0.28147">
        <ele>1337.33</ele>
        <time>2017-12-16T15:33:23Z</time>
      </trkpt>
      <trkpt lat="42.85115" lon="0.28151">
        <ele>1338.77</ele>
        <time>2017-12-16T15:33:34Z</time>
      </trkpt>
      <trkpt lat="42.85109" lon="0.28155">
        <ele>1340.22</ele>
        <time>2017-12-16T15:33:45Z</time>
      </trkpt>
      <trkpt lat="42.85108" lon="0.28149">
        <ele>1340.22</ele>
        <time>2017-12-16T15:34:00Z</time>
      </trkpt>
      <trkpt lat="42.85109" lon="0.28144">
        <ele>1341.66</ele>
        <time>2017-12-16T15:34:14Z</time>
      </trkpt>
      <trkpt lat="42.85115" lon="0.28144">
        <ele>1342.62</ele>
        <time>2017-12-16T15:34:30Z</time>
      </trkpt>
      <trkpt lat="42.85119" lon="0.28145">
        <ele>1342.62</ele>
        <time>2017-12-16T15:34:53Z</time>
      </trkpt>
      <trkpt lat="42.85121" lon="0.2814">
        <ele>1343.58</ele>
        <time>2017-12-16T15:35:08Z</time>
      </trkpt>
      <trkpt lat="42.85124" lon="0.28128">
        <ele>1344.54</ele>
        <time>2017-12-16T15:35:19Z</time>
      </trkpt>
      <trkpt lat="42.85125" lon="0.28116">
        <ele>1346.46</ele>
        <time>2017-12-16T15:35:32Z</time>
      </trkpt>
      <trkpt lat="42.85127" lon="0.28106">
        <ele>1347.91</ele>
        <time>2017-12-16T15:35:43Z</time>
      </trkpt>
      <trkpt lat="42.85129" lon="0.28092">
        <ele>1348.87</ele>
        <time>2017-12-16T15:35:57Z</time>
      </trkpt>
      <trkpt lat="42.85132" lon="0.28091">
        <ele>1349.35</ele>
        <time>2017-12-16T15:36:12Z</time>
      </trkpt>
      <trkpt lat="42.85134" lon="0.28079">
        <ele>1350.31</ele>
        <time>2017-12-16T15:36:29Z</time>
      </trkpt>
      <trkpt lat="42.85134" lon="0.28068">
        <ele>1351.75</ele>
        <time>2017-12-16T15:36:39Z</time>
      </trkpt>
      <trkpt lat="42.85137" lon="0.28059">
        <ele>1353.19</ele>
        <time>2017-12-16T15:36:52Z</time>
      </trkpt>
      <trkpt lat="42.85139" lon="0.28048">
        <ele>1355.12</ele>
        <time>2017-12-16T15:37:06Z</time>
      </trkpt>
      <trkpt lat="42.85143" lon="0.28036">
        <ele>1356.56</ele>
        <time>2017-12-16T15:37:19Z</time>
      </trkpt>
      <trkpt lat="42.85145" lon="0.28028">
        <ele>1357.52</ele>
        <time>2017-12-16T15:37:30Z</time>
      </trkpt>
      <trkpt lat="42.85149" lon="0.28015">
        <ele>1358.48</ele>
        <time>2017-12-16T15:37:43Z</time>
      </trkpt>
      <trkpt lat="42.85153" lon="0.28003">
        <ele>1359.92</ele>
        <time>2017-12-16T15:37:57Z</time>
      </trkpt>
      <trkpt lat="42.85155" lon="0.27995">
        <ele>1360.4</ele>
        <time>2017-12-16T15:38:06Z</time>
      </trkpt>
      <trkpt lat="42.85157" lon="0.27986">
        <ele>1361.36</ele>
        <time>2017-12-16T15:38:17Z</time>
      </trkpt>
      <trkpt lat="42.8516" lon="0.27976">
        <ele>1362.33</ele>
        <time>2017-12-16T15:38:28Z</time>
      </trkpt>
      <trkpt lat="42.85158" lon="0.27965">
        <ele>1363.29</ele>
        <time>2017-12-16T15:38:41Z</time>
      </trkpt>
      <trkpt lat="42.85155" lon="0.27954">
        <ele>1365.21</ele>
        <time>2017-12-16T15:38:54Z</time>
      </trkpt>
      <trkpt lat="42.85153" lon="0.27945">
        <ele>1367.13</ele>
        <time>2017-12-16T15:39:07Z</time>
      </trkpt>
      <trkpt lat="42.85155" lon="0.27931">
        <ele>1369.05</ele>
        <time>2017-12-16T15:39:22Z</time>
      </trkpt>
      <trkpt lat="42.85155" lon="0.27923">
        <ele>1370.5</ele>
        <time>2017-12-16T15:39:34Z</time>
      </trkpt>
      <trkpt lat="42.85153" lon="0.27913">
        <ele>1371.94</ele>
        <time>2017-12-16T15:39:48Z</time>
      </trkpt>
      <trkpt lat="42.85154" lon="0.27903">
        <ele>1373.38</ele>
        <time>2017-12-16T15:40:00Z</time>
      </trkpt>
      <trkpt lat="42.85152" lon="0.27897">
        <ele>1373.86</ele>
        <time>2017-12-16T15:40:15Z</time>
      </trkpt>
      <trkpt lat="42.85152" lon="0.27894">
        <ele>1374.34</ele>
        <time>2017-12-16T15:40:28Z</time>
      </trkpt>
      <trkpt lat="42.85151" lon="0.27889">
        <ele>1374.82</ele>
        <time>2017-12-16T15:40:41Z</time>
      </trkpt>
      <trkpt lat="42.85152" lon="0.27888">
        <ele>1374.82</ele>
        <time>2017-12-16T15:41:03Z</time>
      </trkpt>
      <trkpt lat="42.85154" lon="0.27886">
        <ele>1374.82</ele>
        <time>2017-12-16T15:41:24Z</time>
      </trkpt>
      <trkpt lat="42.85156" lon="0.27888">
        <ele>1374.82</ele>
        <time>2017-12-16T15:41:45Z</time>
      </trkpt>
      <trkpt lat="42.85154" lon="0.27889">
        <ele>1375.3</ele>
        <time>2017-12-16T15:42:08Z</time>
      </trkpt>
      <trkpt lat="42.85153" lon="0.27887">
        <ele>1375.3</ele>
        <time>2017-12-16T15:42:23Z</time>
      </trkpt>
      <trkpt lat="42.85151" lon="0.27879">
        <ele>1376.26</ele>
        <time>2017-12-16T15:42:30Z</time>
      </trkpt>
      <trkpt lat="42.8515" lon="0.27875">
        <ele>1377.23</ele>
        <time>2017-12-16T15:42:34Z</time>
      </trkpt>
      <trkpt lat="42.85146" lon="0.27866">
        <ele>1378.19</ele>
        <time>2017-12-16T15:42:46Z</time>
      </trkpt>
      <trkpt lat="42.85143" lon="0.27858">
        <ele>1379.15</ele>
        <time>2017-12-16T15:42:59Z</time>
      </trkpt>
      <trkpt lat="42.85141" lon="0.27857">
        <ele>1379.63</ele>
        <time>2017-12-16T15:43:02Z</time>
      </trkpt>
      <trkpt lat="42.85135" lon="0.27853">
        <ele>1380.59</ele>
        <time>2017-12-16T15:43:08Z</time>
      </trkpt>
      <trkpt lat="42.85131" lon="0.27851">
        <ele>1381.07</ele>
        <time>2017-12-16T15:43:13Z</time>
      </trkpt>
      <trkpt lat="42.85125" lon="0.27845">
        <ele>1382.99</ele>
        <time>2017-12-16T15:43:23Z</time>
      </trkpt>
      <trkpt lat="42.85121" lon="0.27836">
        <ele>1383.47</ele>
        <time>2017-12-16T15:43:38Z</time>
      </trkpt>
      <trkpt lat="42.85118" lon="0.27829">
        <ele>1384.44</ele>
        <time>2017-12-16T15:43:55Z</time>
      </trkpt>
      <trkpt lat="42.85114" lon="0.27818">
        <ele>1385.88</ele>
        <time>2017-12-16T15:44:06Z</time>
      </trkpt>
      <trkpt lat="42.8511" lon="0.2781">
        <ele>1386.84</ele>
        <time>2017-12-16T15:44:22Z</time>
      </trkpt>
      <trkpt lat="42.85106" lon="0.27799">
        <ele>1388.28</ele>
        <time>2017-12-16T15:44:34Z</time>
      </trkpt>
      <trkpt lat="42.85106" lon="0.27794">
        <ele>1389.24</ele>
        <time>2017-12-16T15:44:44Z</time>
      </trkpt>
      <trkpt lat="42.85106" lon="0.27787">
        <ele>1390.2</ele>
        <time>2017-12-16T15:45:04Z</time>
      </trkpt>
      <trkpt lat="42.85105" lon="0.27779">
        <ele>1391.65</ele>
        <time>2017-12-16T15:45:14Z</time>
      </trkpt>
      <trkpt lat="42.85105" lon="0.2777">
        <ele>1392.61</ele>
        <time>2017-12-16T15:45:26Z</time>
      </trkpt>
      <trkpt lat="42.85105" lon="0.2776">
        <ele>1394.05</ele>
        <time>2017-12-16T15:45:36Z</time>
      </trkpt>
      <trkpt lat="42.85105" lon="0.27748">
        <ele>1395.49</ele>
        <time>2017-12-16T15:45:47Z</time>
      </trkpt>
      <trkpt lat="42.85107" lon="0.27748">
        <ele>1395.49</ele>
        <time>2017-12-16T15:45:58Z</time>
      </trkpt>
      <trkpt lat="42.8511" lon="0.27746">
        <ele>1395.97</ele>
        <time>2017-12-16T15:46:18Z</time>
      </trkpt>
      <trkpt lat="42.8511" lon="0.27745">
        <ele>1395.49</ele>
        <time>2017-12-16T15:46:23Z</time>
      </trkpt>
      <trkpt lat="42.85107" lon="0.27738">
        <ele>1396.45</ele>
        <time>2017-12-16T15:46:34Z</time>
      </trkpt>
      <trkpt lat="42.85108" lon="0.27733">
        <ele>1396.45</ele>
        <time>2017-12-16T15:46:54Z</time>
      </trkpt>
      <trkpt lat="42.85107" lon="0.2773">
        <ele>1397.41</ele>
        <time>2017-12-16T15:47:09Z</time>
      </trkpt>
      <trkpt lat="42.85108" lon="0.27724">
        <ele>1397.89</ele>
        <time>2017-12-16T15:47:16Z</time>
      </trkpt>
      <trkpt lat="42.85108" lon="0.27723">
        <ele>1397.89</ele>
        <time>2017-12-16T15:47:17Z</time>
      </trkpt>
      <trkpt lat="42.85109" lon="0.27721">
        <ele>1397.89</ele>
        <time>2017-12-16T15:47:19Z</time>
      </trkpt>
      <trkpt lat="42.85112" lon="0.27715">
        <ele>1398.86</ele>
        <time>2017-12-16T15:47:25Z</time>
      </trkpt>
      <trkpt lat="42.85113" lon="0.27711">
        <ele>1399.34</ele>
        <time>2017-12-16T15:47:29Z</time>
      </trkpt>
      <trkpt lat="42.85116" lon="0.27698">
        <ele>1400.78</ele>
        <time>2017-12-16T15:47:40Z</time>
      </trkpt>
      <trkpt lat="42.85116" lon="0.27692">
        <ele>1401.26</ele>
        <time>2017-12-16T15:47:49Z</time>
      </trkpt>
      <trkpt lat="42.85116" lon="0.27683">
        <ele>1401.26</ele>
        <time>2017-12-16T15:47:58Z</time>
      </trkpt>
      <trkpt lat="42.85116" lon="0.27679">
        <ele>1401.26</ele>
        <time>2017-12-16T15:48:01Z</time>
      </trkpt>
      <trkpt lat="42.85119" lon="0.27672">
        <ele>1401.74</ele>
        <time>2017-12-16T15:48:10Z</time>
      </trkpt>
      <trkpt lat="42.85124" lon="0.2766">
        <ele>1401.74</ele>
        <time>2017-12-16T15:48:21Z</time>
      </trkpt>
      <trkpt lat="42.85128" lon="0.2765">
        <ele>1402.22</ele>
        <time>2017-12-16T15:48:31Z</time>
      </trkpt>
      <trkpt lat="42.85129" lon="0.27645">
        <ele>1402.7</ele>
        <time>2017-12-16T15:48:45Z</time>
      </trkpt>
      <trkpt lat="42.85127" lon="0.2764">
        <ele>1402.7</ele>
        <time>2017-12-16T15:48:58Z</time>
      </trkpt>
      <trkpt lat="42.85131" lon="0.27639">
        <ele>1402.7</ele>
        <time>2017-12-16T15:49:16Z</time>
      </trkpt>
      <trkpt lat="42.8513" lon="0.27638">
        <ele>1402.7</ele>
        <time>2017-12-16T15:49:34Z</time>
      </trkpt>
      <trkpt lat="42.85129" lon="0.27638">
        <ele>1402.7</ele>
        <time>2017-12-16T15:49:52Z</time>
      </trkpt>
      <trkpt lat="42.85132" lon="0.27638">
        <ele>1403.18</ele>
        <time>2017-12-16T15:50:03Z</time>
      </trkpt>
      <trkpt lat="42.85132" lon="0.27638">
        <ele>1403.18</ele>
        <time>2017-12-16T15:50:25Z</time>
      </trkpt>
      <trkpt lat="42.85136" lon="0.27632">
        <ele>1404.62</ele>
        <time>2017-12-16T15:50:40Z</time>
      </trkpt>
      <trkpt lat="42.85139" lon="0.27625">
        <ele>1406.07</ele>
        <time>2017-12-16T15:50:59Z</time>
      </trkpt>
      <trkpt lat="42.85143" lon="0.27615">
        <ele>1407.03</ele>
        <time>2017-12-16T15:51:11Z</time>
      </trkpt>
      <trkpt lat="42.85147" lon="0.27606">
        <ele>1408.95</ele>
        <time>2017-12-16T15:51:26Z</time>
      </trkpt>
      <trkpt lat="42.85152" lon="0.276">
        <ele>1409.91</ele>
        <time>2017-12-16T15:51:38Z</time>
      </trkpt>
      <trkpt lat="42.85155" lon="0.27593">
        <ele>1411.35</ele>
        <time>2017-12-16T15:51:50Z</time>
      </trkpt>
      <trkpt lat="42.85155" lon="0.27591">
        <ele>1411.35</ele>
        <time>2017-12-16T15:52:03Z</time>
      </trkpt>
      <trkpt lat="42.85157" lon="0.27586">
        <ele>1412.79</ele>
        <time>2017-12-16T15:52:16Z</time>
      </trkpt>
      <trkpt lat="42.85158" lon="0.27588">
        <ele>1412.79</ele>
        <time>2017-12-16T15:52:37Z</time>
      </trkpt>
      <trkpt lat="42.85157" lon="0.27589">
        <ele>1412.79</ele>
        <time>2017-12-16T15:52:55Z</time>
      </trkpt>
      <trkpt lat="42.85158" lon="0.27585">
        <ele>1411.35</ele>
        <time>2017-12-16T15:53:08Z</time>
      </trkpt>
      <trkpt lat="42.85162" lon="0.27581">
        <ele>1411.35</ele>
        <time>2017-12-16T15:53:29Z</time>
      </trkpt>
      <trkpt lat="42.85168" lon="0.27572">
        <ele>1411.35</ele>
        <time>2017-12-16T15:53:39Z</time>
      </trkpt>
      <trkpt lat="42.85172" lon="0.27562">
        <ele>1411.35</ele>
        <time>2017-12-16T15:53:49Z</time>
      </trkpt>
      <trkpt lat="42.85177" lon="0.2755">
        <ele>1413.28</ele>
        <time>2017-12-16T15:54:01Z</time>
      </trkpt>
      <trkpt lat="42.85184" lon="0.27538">
        <ele>1414.24</ele>
        <time>2017-12-16T15:54:15Z</time>
      </trkpt>
      <trkpt lat="42.85189" lon="0.27526">
        <ele>1415.2</ele>
        <time>2017-12-16T15:54:27Z</time>
      </trkpt>
      <trkpt lat="42.85193" lon="0.27519">
        <ele>1416.16</ele>
        <time>2017-12-16T15:54:38Z</time>
      </trkpt>
      <trkpt lat="42.85196" lon="0.27514">
        <ele>1417.12</ele>
        <time>2017-12-16T15:54:46Z</time>
      </trkpt>
      <trkpt lat="42.85201" lon="0.27506">
        <ele>1418.08</ele>
        <time>2017-12-16T15:54:58Z</time>
      </trkpt>
      <trkpt lat="42.85205" lon="0.27498">
        <ele>1418.56</ele>
        <time>2017-12-16T15:55:08Z</time>
      </trkpt>
      <trkpt lat="42.85206" lon="0.27496">
        <ele>1418.56</ele>
        <time>2017-12-16T15:55:10Z</time>
      </trkpt>
      <trkpt lat="42.85211" lon="0.27485">
        <ele>1419.52</ele>
        <time>2017-12-16T15:55:25Z</time>
      </trkpt>
      <trkpt lat="42.85215" lon="0.2748">
        <ele>1420.49</ele>
        <time>2017-12-16T15:55:41Z</time>
      </trkpt>
      <trkpt lat="42.8522" lon="0.27471">
        <ele>1421.45</ele>
        <time>2017-12-16T15:55:52Z</time>
      </trkpt>
      <trkpt lat="42.85223" lon="0.27466">
        <ele>1421.93</ele>
        <time>2017-12-16T15:56:06Z</time>
      </trkpt>
      <trkpt lat="42.85222" lon="0.27467">
        <ele>1421.93</ele>
        <time>2017-12-16T15:56:19Z</time>
      </trkpt>
      <trkpt lat="42.85224" lon="0.27467">
        <ele>1421.93</ele>
        <time>2017-12-16T15:56:38Z</time>
      </trkpt>
      <trkpt lat="42.85223" lon="0.27465">
        <ele>1421.93</ele>
        <time>2017-12-16T15:56:58Z</time>
      </trkpt>
      <trkpt lat="42.85225" lon="0.27464">
        <ele>1420.97</ele>
        <time>2017-12-16T15:57:25Z</time>
      </trkpt>
      <trkpt lat="42.85226" lon="0.27462">
        <ele>1420.97</ele>
        <time>2017-12-16T15:57:35Z</time>
      </trkpt>
      <trkpt lat="42.85229" lon="0.27461">
        <ele>1420.97</ele>
        <time>2017-12-16T15:57:49Z</time>
      </trkpt>
      <trkpt lat="42.85231" lon="0.27458">
        <ele>1420.97</ele>
        <time>2017-12-16T15:57:53Z</time>
      </trkpt>
      <trkpt lat="42.85234" lon="0.2745">
        <ele>1422.89</ele>
        <time>2017-12-16T15:58:02Z</time>
      </trkpt>
      <trkpt lat="42.85239" lon="0.27441">
        <ele>1423.85</ele>
        <time>2017-12-16T15:58:15Z</time>
      </trkpt>
      <trkpt lat="42.85246" lon="0.27429">
        <ele>1424.81</ele>
        <time>2017-12-16T15:58:29Z</time>
      </trkpt>
      <trkpt lat="42.85255" lon="0.2742">
        <ele>1425.77</ele>
        <time>2017-12-16T15:58:43Z</time>
      </trkpt>
      <trkpt lat="42.85257" lon="0.27418">
        <ele>1426.25</ele>
        <time>2017-12-16T15:58:49Z</time>
      </trkpt>
      <trkpt lat="42.85261" lon="0.27408">
        <ele>1427.7</ele>
        <time>2017-12-16T15:59:00Z</time>
      </trkpt>
      <trkpt lat="42.85262" lon="0.27402">
        <ele>1428.66</ele>
        <time>2017-12-16T15:59:07Z</time>
      </trkpt>
      <trkpt lat="42.85267" lon="0.27396">
        <ele>1429.14</ele>
        <time>2017-12-16T15:59:20Z</time>
      </trkpt>
      <trkpt lat="42.85273" lon="0.27388">
        <ele>1430.1</ele>
        <time>2017-12-16T15:59:34Z</time>
      </trkpt>
      <trkpt lat="42.85278" lon="0.27383">
        <ele>1431.54</ele>
        <time>2017-12-16T15:59:44Z</time>
      </trkpt>
      <trkpt lat="42.8528" lon="0.27381">
        <ele>1431.54</ele>
        <time>2017-12-16T15:59:47Z</time>
      </trkpt>
      <trkpt lat="42.85283" lon="0.27372">
        <ele>1432.5</ele>
        <time>2017-12-16T15:59:56Z</time>
      </trkpt>
      <trkpt lat="42.85288" lon="0.27364">
        <ele>1432.98</ele>
        <time>2017-12-16T16:00:06Z</time>
      </trkpt>
      <trkpt lat="42.85289" lon="0.27363">
        <ele>1433.46</ele>
        <time>2017-12-16T16:00:08Z</time>
      </trkpt>
      <trkpt lat="42.85294" lon="0.27357">
        <ele>1433.94</ele>
        <time>2017-12-16T16:00:17Z</time>
      </trkpt>
      <trkpt lat="42.853" lon="0.27349">
        <ele>1434.91</ele>
        <time>2017-12-16T16:00:28Z</time>
      </trkpt>
      <trkpt lat="42.85302" lon="0.27347">
        <ele>1435.39</ele>
        <time>2017-12-16T16:00:31Z</time>
      </trkpt>
      <trkpt lat="42.8531" lon="0.27334">
        <ele>1435.39</ele>
        <time>2017-12-16T16:00:44Z</time>
      </trkpt>
      <trkpt lat="42.85313" lon="0.27332">
        <ele>1435.39</ele>
        <time>2017-12-16T16:00:47Z</time>
      </trkpt>
      <trkpt lat="42.85315" lon="0.2733">
        <ele>1435.87</ele>
        <time>2017-12-16T16:00:51Z</time>
      </trkpt>
      <trkpt lat="42.85319" lon="0.27321">
        <ele>1435.87</ele>
        <time>2017-12-16T16:01:01Z</time>
      </trkpt>
      <trkpt lat="42.85324" lon="0.27317">
        <ele>1436.35</ele>
        <time>2017-12-16T16:01:09Z</time>
      </trkpt>
      <trkpt lat="42.85326" lon="0.27312">
        <ele>1436.83</ele>
        <time>2017-12-16T16:01:13Z</time>
      </trkpt>
      <trkpt lat="42.85331" lon="0.27308">
        <ele>1436.83</ele>
        <time>2017-12-16T16:01:20Z</time>
      </trkpt>
      <trkpt lat="42.85333" lon="0.27305">
        <ele>1436.83</ele>
        <time>2017-12-16T16:01:23Z</time>
      </trkpt>
      <trkpt lat="42.8534" lon="0.27298">
        <ele>1437.79</ele>
        <time>2017-12-16T16:01:35Z</time>
      </trkpt>
      <trkpt lat="42.85345" lon="0.27289">
        <ele>1438.27</ele>
        <time>2017-12-16T16:01:45Z</time>
      </trkpt>
      <trkpt lat="42.85347" lon="0.27286">
        <ele>1438.27</ele>
        <time>2017-12-16T16:01:48Z</time>
      </trkpt>
      <trkpt lat="42.85348" lon="0.27279">
        <ele>1439.71</ele>
        <time>2017-12-16T16:01:57Z</time>
      </trkpt>
      <trkpt lat="42.8535" lon="0.2728">
        <ele>1440.19</ele>
        <time>2017-12-16T16:02:21Z</time>
      </trkpt>
      <trkpt lat="42.85352" lon="0.27275">
        <ele>1440.19</ele>
        <time>2017-12-16T16:02:36Z</time>
      </trkpt>
      <trkpt lat="42.85361" lon="0.27265">
        <ele>1440.19</ele>
        <time>2017-12-16T16:02:47Z</time>
      </trkpt>
      <trkpt lat="42.85365" lon="0.27261">
        <ele>1440.67</ele>
        <time>2017-12-16T16:02:52Z</time>
      </trkpt>
      <trkpt lat="42.85367" lon="0.27259">
        <ele>1440.67</ele>
        <time>2017-12-16T16:02:55Z</time>
      </trkpt>
      <trkpt lat="42.85372" lon="0.27255">
        <ele>1440.67</ele>
        <time>2017-12-16T16:03:01Z</time>
      </trkpt>
      <trkpt lat="42.85375" lon="0.2725">
        <ele>1441.15</ele>
        <time>2017-12-16T16:03:08Z</time>
      </trkpt>
      <trkpt lat="42.85379" lon="0.27248">
        <ele>1441.15</ele>
        <time>2017-12-16T16:03:13Z</time>
      </trkpt>
      <trkpt lat="42.85387" lon="0.27235">
        <ele>1441.63</ele>
        <time>2017-12-16T16:03:25Z</time>
      </trkpt>
      <trkpt lat="42.85391" lon="0.27226">
        <ele>1442.11</ele>
        <time>2017-12-16T16:03:36Z</time>
      </trkpt>
      <trkpt lat="42.85393" lon="0.27226">
        <ele>1442.6</ele>
        <time>2017-12-16T16:03:49Z</time>
      </trkpt>
      <trkpt lat="42.85395" lon="0.27224">
        <ele>1442.6</ele>
        <time>2017-12-16T16:03:52Z</time>
      </trkpt>
      <trkpt lat="42.85398" lon="0.27223">
        <ele>1442.6</ele>
        <time>2017-12-16T16:03:54Z</time>
      </trkpt>
      <trkpt lat="42.85398" lon="0.2722">
        <ele>1442.6</ele>
        <time>2017-12-16T16:03:56Z</time>
      </trkpt>
      <trkpt lat="42.85405" lon="0.2721">
        <ele>1443.08</ele>
        <time>2017-12-16T16:04:06Z</time>
      </trkpt>
      <trkpt lat="42.85413" lon="0.27198">
        <ele>1443.08</ele>
        <time>2017-12-16T16:04:17Z</time>
      </trkpt>
      <trkpt lat="42.85416" lon="0.27196">
        <ele>1443.08</ele>
        <time>2017-12-16T16:04:21Z</time>
      </trkpt>
      <trkpt lat="42.85417" lon="0.27195">
        <ele>1443.08</ele>
        <time>2017-12-16T16:04:23Z</time>
      </trkpt>
      <trkpt lat="42.8542" lon="0.27191">
        <ele>1443.56</ele>
        <time>2017-12-16T16:04:28Z</time>
      </trkpt>
      <trkpt lat="42.85422" lon="0.27185">
        <ele>1444.04</ele>
        <time>2017-12-16T16:04:34Z</time>
      </trkpt>
      <trkpt lat="42.85428" lon="0.27172">
        <ele>1444.52</ele>
        <time>2017-12-16T16:04:48Z</time>
      </trkpt>
      <trkpt lat="42.85431" lon="0.27162">
        <ele>1445</ele>
        <time>2017-12-16T16:04:59Z</time>
      </trkpt>
      <trkpt lat="42.85431" lon="0.27157">
        <ele>1445</ele>
        <time>2017-12-16T16:05:10Z</time>
      </trkpt>
      <trkpt lat="42.85433" lon="0.27152">
        <ele>1445.48</ele>
        <time>2017-12-16T16:05:32Z</time>
      </trkpt>
      <trkpt lat="42.85438" lon="0.27147">
        <ele>1445.96</ele>
        <time>2017-12-16T16:05:46Z</time>
      </trkpt>
      <trkpt lat="42.85441" lon="0.27141">
        <ele>1446.92</ele>
        <time>2017-12-16T16:05:58Z</time>
      </trkpt>
      <trkpt lat="42.85443" lon="0.2714">
        <ele>1446.92</ele>
        <time>2017-12-16T16:06:12Z</time>
      </trkpt>
      <trkpt lat="42.85444" lon="0.27142">
        <ele>1448.36</ele>
        <time>2017-12-16T16:06:29Z</time>
      </trkpt>
      <trkpt lat="42.85444" lon="0.27142">
        <ele>1446.92</ele>
        <time>2017-12-16T16:06:54Z</time>
      </trkpt>
      <trkpt lat="42.85442" lon="0.27141">
        <ele>1446.92</ele>
        <time>2017-12-16T16:07:28Z</time>
      </trkpt>
      <trkpt lat="42.85443" lon="0.2714">
        <ele>1446.44</ele>
        <time>2017-12-16T16:07:47Z</time>
      </trkpt>
      <trkpt lat="42.85445" lon="0.27142">
        <ele>1446.44</ele>
        <time>2017-12-16T16:08:12Z</time>
      </trkpt>
      <trkpt lat="42.85445" lon="0.27143">
        <ele>1446.44</ele>
        <time>2017-12-16T16:08:40Z</time>
      </trkpt>
      <trkpt lat="42.85438" lon="0.27149">
        <ele>1445</ele>
        <time>2017-12-16T16:08:55Z</time>
      </trkpt>
      <trkpt lat="42.85432" lon="0.27161">
        <ele>1443.56</ele>
        <time>2017-12-16T16:09:08Z</time>
      </trkpt>
      <trkpt lat="42.85429" lon="0.27171">
        <ele>1442.6</ele>
        <time>2017-12-16T16:09:18Z</time>
      </trkpt>
      <trkpt lat="42.85424" lon="0.27181">
        <ele>1442.11</ele>
        <time>2017-12-16T16:09:30Z</time>
      </trkpt>
      <trkpt lat="42.85418" lon="0.27196">
        <ele>1441.63</ele>
        <time>2017-12-16T16:09:43Z</time>
      </trkpt>
      <trkpt lat="42.85411" lon="0.27208">
        <ele>1441.15</ele>
        <time>2017-12-16T16:09:55Z</time>
      </trkpt>
      <trkpt lat="42.85408" lon="0.27211">
        <ele>1441.15</ele>
        <time>2017-12-16T16:09:59Z</time>
      </trkpt>
      <trkpt lat="42.85405" lon="0.27213">
        <ele>1441.15</ele>
        <time>2017-12-16T16:10:02Z</time>
      </trkpt>
      <trkpt lat="42.85403" lon="0.27215">
        <ele>1441.15</ele>
        <time>2017-12-16T16:10:04Z</time>
      </trkpt>
      <trkpt lat="42.85396" lon="0.27224">
        <ele>1441.15</ele>
        <time>2017-12-16T16:10:16Z</time>
      </trkpt>
      <trkpt lat="42.85389" lon="0.27234">
        <ele>1440.19</ele>
        <time>2017-12-16T16:10:28Z</time>
      </trkpt>
      <trkpt lat="42.85388" lon="0.27237">
        <ele>1440.19</ele>
        <time>2017-12-16T16:10:30Z</time>
      </trkpt>
      <trkpt lat="42.85385" lon="0.27241">
        <ele>1439.71</ele>
        <time>2017-12-16T16:10:34Z</time>
      </trkpt>
      <trkpt lat="42.85377" lon="0.2725">
        <ele>1439.23</ele>
        <time>2017-12-16T16:10:45Z</time>
      </trkpt>
      <trkpt lat="42.85371" lon="0.27257">
        <ele>1439.23</ele>
        <time>2017-12-16T16:10:56Z</time>
      </trkpt>
      <trkpt lat="42.85362" lon="0.27267">
        <ele>1437.79</ele>
        <time>2017-12-16T16:11:08Z</time>
      </trkpt>
      <trkpt lat="42.85361" lon="0.27268">
        <ele>1437.79</ele>
        <time>2017-12-16T16:11:09Z</time>
      </trkpt>
      <trkpt lat="42.85358" lon="0.27269">
        <ele>1437.79</ele>
        <time>2017-12-16T16:11:22Z</time>
      </trkpt>
      <trkpt lat="42.85352" lon="0.27279">
        <ele>1437.79</ele>
        <time>2017-12-16T16:11:33Z</time>
      </trkpt>
      <trkpt lat="42.8535" lon="0.27281">
        <ele>1437.79</ele>
        <time>2017-12-16T16:11:35Z</time>
      </trkpt>
      <trkpt lat="42.85343" lon="0.27294">
        <ele>1437.31</ele>
        <time>2017-12-16T16:11:47Z</time>
      </trkpt>
      <trkpt lat="42.85338" lon="0.27303">
        <ele>1436.83</ele>
        <time>2017-12-16T16:11:56Z</time>
      </trkpt>
      <trkpt lat="42.85332" lon="0.27312">
        <ele>1436.35</ele>
        <time>2017-12-16T16:12:06Z</time>
      </trkpt>
      <trkpt lat="42.85326" lon="0.27319">
        <ele>1436.35</ele>
        <time>2017-12-16T16:12:15Z</time>
      </trkpt>
      <trkpt lat="42.85319" lon="0.27327">
        <ele>1435.87</ele>
        <time>2017-12-16T16:12:26Z</time>
      </trkpt>
      <trkpt lat="42.85318" lon="0.27328">
        <ele>1435.39</ele>
        <time>2017-12-16T16:12:28Z</time>
      </trkpt>
      <trkpt lat="42.85308" lon="0.27338">
        <ele>1434.91</ele>
        <time>2017-12-16T16:12:41Z</time>
      </trkpt>
      <trkpt lat="42.85303" lon="0.27345">
        <ele>1434.91</ele>
        <time>2017-12-16T16:12:51Z</time>
      </trkpt>
      <trkpt lat="42.85303" lon="0.27346">
        <ele>1434.91</ele>
        <time>2017-12-16T16:12:52Z</time>
      </trkpt>
      <trkpt lat="42.85295" lon="0.27356">
        <ele>1434.42</ele>
        <time>2017-12-16T16:13:03Z</time>
      </trkpt>
      <trkpt lat="42.85294" lon="0.27358">
        <ele>1434.42</ele>
        <time>2017-12-16T16:13:05Z</time>
      </trkpt>
      <trkpt lat="42.85288" lon="0.27366">
        <ele>1433.46</ele>
        <time>2017-12-16T16:13:14Z</time>
      </trkpt>
      <trkpt lat="42.85285" lon="0.2737">
        <ele>1432.98</ele>
        <time>2017-12-16T16:13:18Z</time>
      </trkpt>
      <trkpt lat="42.85281" lon="0.27381">
        <ele>1431.54</ele>
        <time>2017-12-16T16:13:29Z</time>
      </trkpt>
      <trkpt lat="42.85274" lon="0.2739">
        <ele>1430.1</ele>
        <time>2017-12-16T16:13:38Z</time>
      </trkpt>
      <trkpt lat="42.85272" lon="0.27392">
        <ele>1430.1</ele>
        <time>2017-12-16T16:13:41Z</time>
      </trkpt>
      <trkpt lat="42.85263" lon="0.27406">
        <ele>1428.66</ele>
        <time>2017-12-16T16:13:54Z</time>
      </trkpt>
      <trkpt lat="42.85258" lon="0.27417">
        <ele>1427.7</ele>
        <time>2017-12-16T16:14:06Z</time>
      </trkpt>
      <trkpt lat="42.85256" lon="0.27419">
        <ele>1426.73</ele>
        <time>2017-12-16T16:14:08Z</time>
      </trkpt>
      <trkpt lat="42.85255" lon="0.27421">
        <ele>1426.73</ele>
        <time>2017-12-16T16:14:10Z</time>
      </trkpt>
      <trkpt lat="42.85254" lon="0.27425">
        <ele>1425.77</ele>
        <time>2017-12-16T16:14:15Z</time>
      </trkpt>
      <trkpt lat="42.85249" lon="0.27431">
        <ele>1426.73</ele>
        <time>2017-12-16T16:14:20Z</time>
      </trkpt>
      <trkpt lat="42.85247" lon="0.27434">
        <ele>1425.29</ele>
        <time>2017-12-16T16:14:22Z</time>
      </trkpt>
      <trkpt lat="42.85245" lon="0.27439">
        <ele>1424.81</ele>
        <time>2017-12-16T16:14:26Z</time>
      </trkpt>
      <trkpt lat="42.85244" lon="0.27441">
        <ele>1424.81</ele>
        <time>2017-12-16T16:14:28Z</time>
      </trkpt>
      <trkpt lat="42.85243" lon="0.27443">
        <ele>1424.81</ele>
        <time>2017-12-16T16:14:30Z</time>
      </trkpt>
      <trkpt lat="42.85238" lon="0.27447">
        <ele>1424.33</ele>
        <time>2017-12-16T16:14:35Z</time>
      </trkpt>
      <trkpt lat="42.85233" lon="0.27456">
        <ele>1422.89</ele>
        <time>2017-12-16T16:14:46Z</time>
      </trkpt>
      <trkpt lat="42.85231" lon="0.27459">
        <ele>1421.93</ele>
        <time>2017-12-16T16:14:49Z</time>
      </trkpt>
      <trkpt lat="42.85223" lon="0.2747">
        <ele>1420.97</ele>
        <time>2017-12-16T16:15:00Z</time>
      </trkpt>
      <trkpt lat="42.85219" lon="0.27476">
        <ele>1420.49</ele>
        <time>2017-12-16T16:15:06Z</time>
      </trkpt>
      <trkpt lat="42.85218" lon="0.27479">
        <ele>1420.49</ele>
        <time>2017-12-16T16:15:08Z</time>
      </trkpt>
      <trkpt lat="42.85214" lon="0.27486">
        <ele>1420</ele>
        <time>2017-12-16T16:15:15Z</time>
      </trkpt>
      <trkpt lat="42.85212" lon="0.27491">
        <ele>1419.52</ele>
        <time>2017-12-16T16:15:19Z</time>
      </trkpt>
      <trkpt lat="42.85209" lon="0.27496">
        <ele>1419.52</ele>
        <time>2017-12-16T16:15:24Z</time>
      </trkpt>
      <trkpt lat="42.85202" lon="0.27506">
        <ele>1418.08</ele>
        <time>2017-12-16T16:15:35Z</time>
      </trkpt>
      <trkpt lat="42.852" lon="0.27509">
        <ele>1418.08</ele>
        <time>2017-12-16T16:15:37Z</time>
      </trkpt>
      <trkpt lat="42.85197" lon="0.27516">
        <ele>1416.64</ele>
        <time>2017-12-16T16:15:47Z</time>
      </trkpt>
      <trkpt lat="42.85195" lon="0.2752">
        <ele>1416.16</ele>
        <time>2017-12-16T16:15:56Z</time>
      </trkpt>
      <trkpt lat="42.85187" lon="0.27532">
        <ele>1415.2</ele>
        <time>2017-12-16T16:16:08Z</time>
      </trkpt>
      <trkpt lat="42.85181" lon="0.27546">
        <ele>1413.76</ele>
        <time>2017-12-16T16:16:20Z</time>
      </trkpt>
      <trkpt lat="42.85173" lon="0.2756">
        <ele>1412.79</ele>
        <time>2017-12-16T16:16:33Z</time>
      </trkpt>
      <trkpt lat="42.85172" lon="0.27561">
        <ele>1412.31</ele>
        <time>2017-12-16T16:16:35Z</time>
      </trkpt>
      <trkpt lat="42.85166" lon="0.27573">
        <ele>1411.83</ele>
        <time>2017-12-16T16:16:46Z</time>
      </trkpt>
      <trkpt lat="42.85161" lon="0.27583">
        <ele>1411.35</ele>
        <time>2017-12-16T16:16:56Z</time>
      </trkpt>
      <trkpt lat="42.85155" lon="0.27596">
        <ele>1410.39</ele>
        <time>2017-12-16T16:17:08Z</time>
      </trkpt>
      <trkpt lat="42.85148" lon="0.27607">
        <ele>1408.47</ele>
        <time>2017-12-16T16:17:20Z</time>
      </trkpt>
      <trkpt lat="42.85141" lon="0.27616">
        <ele>1407.03</ele>
        <time>2017-12-16T16:17:30Z</time>
      </trkpt>
      <trkpt lat="42.85136" lon="0.27625">
        <ele>1405.1</ele>
        <time>2017-12-16T16:17:41Z</time>
      </trkpt>
      <trkpt lat="42.85133" lon="0.27633">
        <ele>1403.66</ele>
        <time>2017-12-16T16:17:54Z</time>
      </trkpt>
      <trkpt lat="42.85128" lon="0.2764">
        <ele>1402.22</ele>
        <time>2017-12-16T16:18:05Z</time>
      </trkpt>
      <trkpt lat="42.85125" lon="0.27639">
        <ele>1401.26</ele>
        <time>2017-12-16T16:18:19Z</time>
      </trkpt>
      <trkpt lat="42.85124" lon="0.2764">
        <ele>1401.26</ele>
        <time>2017-12-16T16:18:21Z</time>
      </trkpt>
      <trkpt lat="42.85121" lon="0.27642">
        <ele>1401.26</ele>
        <time>2017-12-16T16:18:25Z</time>
      </trkpt>
      <trkpt lat="42.85118" lon="0.27648">
        <ele>1401.26</ele>
        <time>2017-12-16T16:18:30Z</time>
      </trkpt>
      <trkpt lat="42.85116" lon="0.27661">
        <ele>1400.78</ele>
        <time>2017-12-16T16:18:42Z</time>
      </trkpt>
      <trkpt lat="42.85116" lon="0.27676">
        <ele>1400.78</ele>
        <time>2017-12-16T16:18:56Z</time>
      </trkpt>
      <trkpt lat="42.85114" lon="0.27674">
        <ele>1399.82</ele>
        <time>2017-12-16T16:19:20Z</time>
      </trkpt>
      <trkpt lat="42.85113" lon="0.27679">
        <ele>1399.82</ele>
        <time>2017-12-16T16:19:36Z</time>
      </trkpt>
      <trkpt lat="42.85113" lon="0.27681">
        <ele>1399.82</ele>
        <time>2017-12-16T16:19:38Z</time>
      </trkpt>
      <trkpt lat="42.85112" lon="0.27694">
        <ele>1399.82</ele>
        <time>2017-12-16T16:19:51Z</time>
      </trkpt>
      <trkpt lat="42.85112" lon="0.27698">
        <ele>1399.34</ele>
        <time>2017-12-16T16:19:58Z</time>
      </trkpt>
      <trkpt lat="42.85111" lon="0.27702">
        <ele>1399.34</ele>
        <time>2017-12-16T16:20:11Z</time>
      </trkpt>
      <trkpt lat="42.85112" lon="0.27704">
        <ele>1399.34</ele>
        <time>2017-12-16T16:20:14Z</time>
      </trkpt>
      <trkpt lat="42.85115" lon="0.27707">
        <ele>1398.86</ele>
        <time>2017-12-16T16:20:25Z</time>
      </trkpt>
      <trkpt lat="42.85113" lon="0.2771">
        <ele>1397.89</ele>
        <time>2017-12-16T16:20:40Z</time>
      </trkpt>
      <trkpt lat="42.85112" lon="0.27716">
        <ele>1396.93</ele>
        <time>2017-12-16T16:20:50Z</time>
      </trkpt>
      <trkpt lat="42.85113" lon="0.2772">
        <ele>1396.93</ele>
        <time>2017-12-16T16:21:01Z</time>
      </trkpt>
      <trkpt lat="42.85115" lon="0.2772">
        <ele>1396.93</ele>
        <time>2017-12-16T16:21:07Z</time>
      </trkpt>
      <trkpt lat="42.85117" lon="0.27721">
        <ele>1396.93</ele>
        <time>2017-12-16T16:21:09Z</time>
      </trkpt>
      <trkpt lat="42.85121" lon="0.27724">
        <ele>1396.93</ele>
        <time>2017-12-16T16:21:20Z</time>
      </trkpt>
      <trkpt lat="42.8512" lon="0.27725">
        <ele>1396.93</ele>
        <time>2017-12-16T16:21:38Z</time>
      </trkpt>
      <trkpt lat="42.85126" lon="0.27728">
        <ele>1396.93</ele>
        <time>2017-12-16T16:21:53Z</time>
      </trkpt>
      <trkpt lat="42.85133" lon="0.27739">
        <ele>1396.93</ele>
        <time>2017-12-16T16:22:05Z</time>
      </trkpt>
      <trkpt lat="42.85132" lon="0.27741">
        <ele>1396.45</ele>
        <time>2017-12-16T16:22:19Z</time>
      </trkpt>
      <trkpt lat="42.85132" lon="0.27742">
        <ele>1396.45</ele>
        <time>2017-12-16T16:22:37Z</time>
      </trkpt>
      <trkpt lat="42.8513" lon="0.27742">
        <ele>1396.45</ele>
        <time>2017-12-16T16:22:53Z</time>
      </trkpt>
      <trkpt lat="42.85126" lon="0.27743">
        <ele>1395.97</ele>
        <time>2017-12-16T16:23:05Z</time>
      </trkpt>
      <trkpt lat="42.85128" lon="0.27742">
        <ele>1395.97</ele>
        <time>2017-12-16T16:23:18Z</time>
      </trkpt>
      <trkpt lat="42.85129" lon="0.27741">
        <ele>1395.97</ele>
        <time>2017-12-16T16:23:33Z</time>
      </trkpt>
      <trkpt lat="42.85128" lon="0.27742">
        <ele>1395.97</ele>
        <time>2017-12-16T16:23:50Z</time>
      </trkpt>
      <trkpt lat="42.8513" lon="0.27742">
        <ele>1395.97</ele>
        <time>2017-12-16T16:24:05Z</time>
      </trkpt>
      <trkpt lat="42.85128" lon="0.27742">
        <ele>1395.97</ele>
        <time>2017-12-16T16:24:17Z</time>
      </trkpt>
      <trkpt lat="42.85129" lon="0.27742">
        <ele>1395.97</ele>
        <time>2017-12-16T16:24:19Z</time>
      </trkpt>
      <trkpt lat="42.85132" lon="0.2774">
        <ele>1395.97</ele>
        <time>2017-12-16T16:24:32Z</time>
      </trkpt>
      <trkpt lat="42.85139" lon="0.27745">
        <ele>1395.97</ele>
        <time>2017-12-16T16:24:46Z</time>
      </trkpt>
      <trkpt lat="42.85139" lon="0.27746">
        <ele>1395.97</ele>
        <time>2017-12-16T16:24:48Z</time>
      </trkpt>
      <trkpt lat="42.8514" lon="0.2775">
        <ele>1395.97</ele>
        <time>2017-12-16T16:24:59Z</time>
      </trkpt>
      <trkpt lat="42.85144" lon="0.27753">
        <ele>1395.97</ele>
        <time>2017-12-16T16:25:05Z</time>
      </trkpt>
      <trkpt lat="42.85149" lon="0.2776">
        <ele>1395.97</ele>
        <time>2017-12-16T16:25:17Z</time>
      </trkpt>
      <trkpt lat="42.85148" lon="0.27762">
        <ele>1395.97</ele>
        <time>2017-12-16T16:25:29Z</time>
      </trkpt>
      <trkpt lat="42.8515" lon="0.27766">
        <ele>1395.01</ele>
        <time>2017-12-16T16:25:39Z</time>
      </trkpt>
      <trkpt lat="42.85152" lon="0.27768">
        <ele>1393.57</ele>
        <time>2017-12-16T16:25:41Z</time>
      </trkpt>
      <trkpt lat="42.85152" lon="0.27773">
        <ele>1393.57</ele>
        <time>2017-12-16T16:25:52Z</time>
      </trkpt>
      <trkpt lat="42.85153" lon="0.27774">
        <ele>1393.57</ele>
        <time>2017-12-16T16:25:55Z</time>
      </trkpt>
      <trkpt lat="42.85155" lon="0.27776">
        <ele>1393.57</ele>
        <time>2017-12-16T16:25:57Z</time>
      </trkpt>
      <trkpt lat="42.85158" lon="0.27779">
        <ele>1392.61</ele>
        <time>2017-12-16T16:26:01Z</time>
      </trkpt>
      <trkpt lat="42.85161" lon="0.27778">
        <ele>1392.13</ele>
        <time>2017-12-16T16:26:05Z</time>
      </trkpt>
      <trkpt lat="42.85161" lon="0.27772">
        <ele>1392.13</ele>
        <time>2017-12-16T16:26:09Z</time>
      </trkpt>
      <trkpt lat="42.85157" lon="0.27769">
        <ele>1392.13</ele>
        <time>2017-12-16T16:26:13Z</time>
      </trkpt>
      <trkpt lat="42.85155" lon="0.27765">
        <ele>1393.57</ele>
        <time>2017-12-16T16:26:17Z</time>
      </trkpt>
      <trkpt lat="42.8515" lon="0.2776">
        <ele>1395.01</ele>
        <time>2017-12-16T16:26:28Z</time>
      </trkpt>
      <trkpt lat="42.85152" lon="0.27762">
        <ele>1395.01</ele>
        <time>2017-12-16T16:26:30Z</time>
      </trkpt>
      <trkpt lat="42.85158" lon="0.27768">
        <ele>1393.57</ele>
        <time>2017-12-16T16:26:35Z</time>
      </trkpt>
      <trkpt lat="42.85165" lon="0.27779">
        <ele>1391.65</ele>
        <time>2017-12-16T16:26:44Z</time>
      </trkpt>
      <trkpt lat="42.85166" lon="0.27781">
        <ele>1390.68</ele>
        <time>2017-12-16T16:26:46Z</time>
      </trkpt>
      <trkpt lat="42.85176" lon="0.27793">
        <ele>1387.8</ele>
        <time>2017-12-16T16:26:58Z</time>
      </trkpt>
      <trkpt lat="42.85178" lon="0.278">
        <ele>1386.36</ele>
        <time>2017-12-16T16:27:10Z</time>
      </trkpt>
      <trkpt lat="42.85181" lon="0.27802">
        <ele>1386.84</ele>
        <time>2017-12-16T16:27:23Z</time>
      </trkpt>
      <trkpt lat="42.85188" lon="0.27809">
        <ele>1385.4</ele>
        <time>2017-12-16T16:27:32Z</time>
      </trkpt>
      <trkpt lat="42.8519" lon="0.2781">
        <ele>1385.4</ele>
        <time>2017-12-16T16:27:33Z</time>
      </trkpt>
      <trkpt lat="42.85199" lon="0.27822">
        <ele>1383.96</ele>
        <time>2017-12-16T16:27:45Z</time>
      </trkpt>
      <trkpt lat="42.852" lon="0.27823">
        <ele>1385.4</ele>
        <time>2017-12-16T16:27:47Z</time>
      </trkpt>
      <trkpt lat="42.85205" lon="0.27829">
        <ele>1385.4</ele>
        <time>2017-12-16T16:28:00Z</time>
      </trkpt>
      <trkpt lat="42.85205" lon="0.27827">
        <ele>1385.4</ele>
        <time>2017-12-16T16:28:25Z</time>
      </trkpt>
      <trkpt lat="42.85208" lon="0.2783">
        <ele>1384.44</ele>
        <time>2017-12-16T16:28:40Z</time>
      </trkpt>
      <trkpt lat="42.85207" lon="0.2783">
        <ele>1383.96</ele>
        <time>2017-12-16T16:28:41Z</time>
      </trkpt>
      <trkpt lat="42.85201" lon="0.27837">
        <ele>1381.55</ele>
        <time>2017-12-16T16:28:55Z</time>
      </trkpt>
      <trkpt lat="42.85202" lon="0.27836">
        <ele>1381.55</ele>
        <time>2017-12-16T16:29:11Z</time>
      </trkpt>
      <trkpt lat="42.85201" lon="0.27837">
        <ele>1381.55</ele>
        <time>2017-12-16T16:29:22Z</time>
      </trkpt>
      <trkpt lat="42.8519" lon="0.27832">
        <ele>1381.07</ele>
        <time>2017-12-16T16:29:33Z</time>
      </trkpt>
      <trkpt lat="42.85186" lon="0.2783">
        <ele>1381.07</ele>
        <time>2017-12-16T16:29:37Z</time>
      </trkpt>
      <trkpt lat="42.85182" lon="0.27829">
        <ele>1381.07</ele>
        <time>2017-12-16T16:29:45Z</time>
      </trkpt>
      <trkpt lat="42.85173" lon="0.27823">
        <ele>1381.07</ele>
        <time>2017-12-16T16:29:55Z</time>
      </trkpt>
      <trkpt lat="42.8517" lon="0.27823">
        <ele>1381.07</ele>
        <time>2017-12-16T16:29:58Z</time>
      </trkpt>
      <trkpt lat="42.85163" lon="0.27825">
        <ele>1381.07</ele>
        <time>2017-12-16T16:30:10Z</time>
      </trkpt>
      <trkpt lat="42.85161" lon="0.27826">
        <ele>1381.07</ele>
        <time>2017-12-16T16:30:26Z</time>
      </trkpt>
      <trkpt lat="42.85163" lon="0.27825">
        <ele>1381.07</ele>
        <time>2017-12-16T16:30:41Z</time>
      </trkpt>
      <trkpt lat="42.85166" lon="0.27826">
        <ele>1381.07</ele>
        <time>2017-12-16T16:31:08Z</time>
      </trkpt>
      <trkpt lat="42.85162" lon="0.27826">
        <ele>1382.51</ele>
        <time>2017-12-16T16:31:27Z</time>
      </trkpt>
      <trkpt lat="42.85161" lon="0.2783">
        <ele>1381.07</ele>
        <time>2017-12-16T16:31:42Z</time>
      </trkpt>
      <trkpt lat="42.85148" lon="0.27837">
        <ele>1379.63</ele>
        <time>2017-12-16T16:31:54Z</time>
      </trkpt>
      <trkpt lat="42.85146" lon="0.27841">
        <ele>1379.15</ele>
        <time>2017-12-16T16:32:06Z</time>
      </trkpt>
      <trkpt lat="42.85145" lon="0.27846">
        <ele>1379.15</ele>
        <time>2017-12-16T16:32:29Z</time>
      </trkpt>
      <trkpt lat="42.85141" lon="0.2786">
        <ele>1378.67</ele>
        <time>2017-12-16T16:32:39Z</time>
      </trkpt>
      <trkpt lat="42.85141" lon="0.27864">
        <ele>1378.67</ele>
        <time>2017-12-16T16:32:41Z</time>
      </trkpt>
      <trkpt lat="42.85142" lon="0.27868">
        <ele>1378.67</ele>
        <time>2017-12-16T16:32:44Z</time>
      </trkpt>
      <trkpt lat="42.85145" lon="0.27871">
        <ele>1377.23</ele>
        <time>2017-12-16T16:32:55Z</time>
      </trkpt>
      <trkpt lat="42.85149" lon="0.27869">
        <ele>1376.75</ele>
        <time>2017-12-16T16:33:16Z</time>
      </trkpt>
      <trkpt lat="42.85149" lon="0.27869">
        <ele>1376.26</ele>
        <time>2017-12-16T16:33:19Z</time>
      </trkpt>
      <trkpt lat="42.85151" lon="0.27875">
        <ele>1375.3</ele>
        <time>2017-12-16T16:33:24Z</time>
      </trkpt>
      <trkpt lat="42.85152" lon="0.27877">
        <ele>1375.3</ele>
        <time>2017-12-16T16:33:26Z</time>
      </trkpt>
      <trkpt lat="42.85157" lon="0.27891">
        <ele>1372.42</ele>
        <time>2017-12-16T16:33:36Z</time>
      </trkpt>
      <trkpt lat="42.85158" lon="0.27896">
        <ele>1371.94</ele>
        <time>2017-12-16T16:33:40Z</time>
      </trkpt>
      <trkpt lat="42.8516" lon="0.27899">
        <ele>1371.46</ele>
        <time>2017-12-16T16:33:43Z</time>
      </trkpt>
      <trkpt lat="42.85165" lon="0.27901">
        <ele>1370.98</ele>
        <time>2017-12-16T16:33:48Z</time>
      </trkpt>
      <trkpt lat="42.85178" lon="0.27906">
        <ele>1368.09</ele>
        <time>2017-12-16T16:34:00Z</time>
      </trkpt>
      <trkpt lat="42.85181" lon="0.27907">
        <ele>1366.65</ele>
        <time>2017-12-16T16:34:04Z</time>
      </trkpt>
      <trkpt lat="42.85191" lon="0.2791">
        <ele>1365.69</ele>
        <time>2017-12-16T16:34:14Z</time>
      </trkpt>
      <trkpt lat="42.85198" lon="0.27915">
        <ele>1364.73</ele>
        <time>2017-12-16T16:34:22Z</time>
      </trkpt>
      <trkpt lat="42.85203" lon="0.27922">
        <ele>1364.73</ele>
        <time>2017-12-16T16:34:29Z</time>
      </trkpt>
      <trkpt lat="42.85208" lon="0.27935">
        <ele>1363.29</ele>
        <time>2017-12-16T16:34:40Z</time>
      </trkpt>
      <trkpt lat="42.85211" lon="0.27939">
        <ele>1362.81</ele>
        <time>2017-12-16T16:34:44Z</time>
      </trkpt>
      <trkpt lat="42.85215" lon="0.27944">
        <ele>1361.36</ele>
        <time>2017-12-16T16:34:49Z</time>
      </trkpt>
      <trkpt lat="42.85219" lon="0.27953">
        <ele>1359.44</ele>
        <time>2017-12-16T16:34:57Z</time>
      </trkpt>
      <trkpt lat="42.85222" lon="0.27957">
        <ele>1360.4</ele>
        <time>2017-12-16T16:35:10Z</time>
      </trkpt>
      <trkpt lat="42.85226" lon="0.27968">
        <ele>1360.4</ele>
        <time>2017-12-16T16:35:18Z</time>
      </trkpt>
      <trkpt lat="42.85227" lon="0.27972">
        <ele>1358.96</ele>
        <time>2017-12-16T16:35:22Z</time>
      </trkpt>
      <trkpt lat="42.85232" lon="0.27987">
        <ele>1355.6</ele>
        <time>2017-12-16T16:35:34Z</time>
      </trkpt>
      <trkpt lat="42.85234" lon="0.28002">
        <ele>1354.63</ele>
        <time>2017-12-16T16:35:44Z</time>
      </trkpt>
      <trkpt lat="42.85234" lon="0.28006">
        <ele>1353.67</ele>
        <time>2017-12-16T16:35:46Z</time>
      </trkpt>
      <trkpt lat="42.85234" lon="0.28009">
        <ele>1353.19</ele>
        <time>2017-12-16T16:35:48Z</time>
      </trkpt>
      <trkpt lat="42.85235" lon="0.28019">
        <ele>1353.19</ele>
        <time>2017-12-16T16:35:54Z</time>
      </trkpt>
      <trkpt lat="42.85235" lon="0.2803">
        <ele>1351.27</ele>
        <time>2017-12-16T16:36:02Z</time>
      </trkpt>
      <trkpt lat="42.85236" lon="0.28044">
        <ele>1348.87</ele>
        <time>2017-12-16T16:36:14Z</time>
      </trkpt>
      <trkpt lat="42.85236" lon="0.28048">
        <ele>1348.39</ele>
        <time>2017-12-16T16:36:17Z</time>
      </trkpt>
      <trkpt lat="42.85235" lon="0.28058">
        <ele>1348.39</ele>
        <time>2017-12-16T16:36:24Z</time>
      </trkpt>
      <trkpt lat="42.85235" lon="0.28061">
        <ele>1347.43</ele>
        <time>2017-12-16T16:36:27Z</time>
      </trkpt>
      <trkpt lat="42.85234" lon="0.28066">
        <ele>1345.98</ele>
        <time>2017-12-16T16:36:31Z</time>
      </trkpt>
      <trkpt lat="42.85234" lon="0.28068">
        <ele>1345.98</ele>
        <time>2017-12-16T16:36:33Z</time>
      </trkpt>
      <trkpt lat="42.85233" lon="0.28077">
        <ele>1345.98</ele>
        <time>2017-12-16T16:36:39Z</time>
      </trkpt>
      <trkpt lat="42.85233" lon="0.28082">
        <ele>1345.5</ele>
        <time>2017-12-16T16:36:43Z</time>
      </trkpt>
      <trkpt lat="42.85233" lon="0.28083">
        <ele>1345.5</ele>
        <time>2017-12-16T16:36:44Z</time>
      </trkpt>
      <trkpt lat="42.85233" lon="0.28087">
        <ele>1348.39</ele>
        <time>2017-12-16T16:36:47Z</time>
      </trkpt>
      <trkpt lat="42.85233" lon="0.28087">
        <ele>1348.39</ele>
        <time>2017-12-16T16:36:48Z</time>
      </trkpt>
      <trkpt lat="42.85233" lon="0.28089">
        <ele>1345.98</ele>
        <time>2017-12-16T16:36:49Z</time>
      </trkpt>
      <trkpt lat="42.85232" lon="0.28099">
        <ele>1343.1</ele>
        <time>2017-12-16T16:36:57Z</time>
      </trkpt>
      <trkpt lat="42.8523" lon="0.28115">
        <ele>1342.14</ele>
        <time>2017-12-16T16:37:08Z</time>
      </trkpt>
      <trkpt lat="42.85229" lon="0.28126">
        <ele>1340.7</ele>
        <time>2017-12-16T16:37:16Z</time>
      </trkpt>
      <trkpt lat="42.85229" lon="0.2813">
        <ele>1338.77</ele>
        <time>2017-12-16T16:37:19Z</time>
      </trkpt>
      <trkpt lat="42.85228" lon="0.28136">
        <ele>1340.22</ele>
        <time>2017-12-16T16:37:23Z</time>
      </trkpt>
      <trkpt lat="42.85227" lon="0.28143">
        <ele>1340.22</ele>
        <time>2017-12-16T16:37:28Z</time>
      </trkpt>
      <trkpt lat="42.85227" lon="0.28147">
        <ele>1338.77</ele>
        <time>2017-12-16T16:37:31Z</time>
      </trkpt>
      <trkpt lat="42.85225" lon="0.28161">
        <ele>1334.93</ele>
        <time>2017-12-16T16:37:42Z</time>
      </trkpt>
      <trkpt lat="42.85225" lon="0.28162">
        <ele>1334.93</ele>
        <time>2017-12-16T16:37:43Z</time>
      </trkpt>
      <trkpt lat="42.85225" lon="0.28164">
        <ele>1336.37</ele>
        <time>2017-12-16T16:37:45Z</time>
      </trkpt>
      <trkpt lat="42.85224" lon="0.28172">
        <ele>1336.37</ele>
        <time>2017-12-16T16:37:51Z</time>
      </trkpt>
      <trkpt lat="42.85224" lon="0.28176">
        <ele>1334.93</ele>
        <time>2017-12-16T16:37:54Z</time>
      </trkpt>
      <trkpt lat="42.8522" lon="0.28188">
        <ele>1333.01</ele>
        <time>2017-12-16T16:38:05Z</time>
      </trkpt>
      <trkpt lat="42.8522" lon="0.28189">
        <ele>1332.52</ele>
        <time>2017-12-16T16:38:07Z</time>
      </trkpt>
      <trkpt lat="42.85217" lon="0.28199">
        <ele>1331.08</ele>
        <time>2017-12-16T16:38:18Z</time>
      </trkpt>
      <trkpt lat="42.85213" lon="0.2821">
        <ele>1329.64</ele>
        <time>2017-12-16T16:38:30Z</time>
      </trkpt>
      <trkpt lat="42.85211" lon="0.2822">
        <ele>1328.2</ele>
        <time>2017-12-16T16:38:37Z</time>
      </trkpt>
      <trkpt lat="42.85208" lon="0.28235">
        <ele>1324.83</ele>
        <time>2017-12-16T16:38:49Z</time>
      </trkpt>
      <trkpt lat="42.85207" lon="0.28238">
        <ele>1323.87</ele>
        <time>2017-12-16T16:38:52Z</time>
      </trkpt>
      <trkpt lat="42.85201" lon="0.28251">
        <ele>1321.47</ele>
        <time>2017-12-16T16:39:04Z</time>
      </trkpt>
      <trkpt lat="42.85198" lon="0.28254">
        <ele>1320.03</ele>
        <time>2017-12-16T16:39:07Z</time>
      </trkpt>
      <trkpt lat="42.85192" lon="0.28261">
        <ele>1318.1</ele>
        <time>2017-12-16T16:39:17Z</time>
      </trkpt>
      <trkpt lat="42.85186" lon="0.28267">
        <ele>1315.22</ele>
        <time>2017-12-16T16:39:26Z</time>
      </trkpt>
      <trkpt lat="42.85177" lon="0.2827">
        <ele>1312.82</ele>
        <time>2017-12-16T16:39:36Z</time>
      </trkpt>
      <trkpt lat="42.85175" lon="0.28275">
        <ele>1310.9</ele>
        <time>2017-12-16T16:39:43Z</time>
      </trkpt>
      <trkpt lat="42.85174" lon="0.28278">
        <ele>1310.9</ele>
        <time>2017-12-16T16:39:45Z</time>
      </trkpt>
      <trkpt lat="42.85172" lon="0.28285">
        <ele>1309.45</ele>
        <time>2017-12-16T16:39:51Z</time>
      </trkpt>
      <trkpt lat="42.8517" lon="0.28297">
        <ele>1306.57</ele>
        <time>2017-12-16T16:40:02Z</time>
      </trkpt>
      <trkpt lat="42.85169" lon="0.28313">
        <ele>1304.65</ele>
        <time>2017-12-16T16:40:13Z</time>
      </trkpt>
      <trkpt lat="42.85166" lon="0.28331">
        <ele>1301.76</ele>
        <time>2017-12-16T16:40:25Z</time>
      </trkpt>
      <trkpt lat="42.85166" lon="0.28338">
        <ele>1301.28</ele>
        <time>2017-12-16T16:40:30Z</time>
      </trkpt>
      <trkpt lat="42.85165" lon="0.28343">
        <ele>1299.84</ele>
        <time>2017-12-16T16:40:34Z</time>
      </trkpt>
      <trkpt lat="42.85165" lon="0.28346">
        <ele>1299.84</ele>
        <time>2017-12-16T16:40:36Z</time>
      </trkpt>
      <trkpt lat="42.85167" lon="0.2835">
        <ele>1299.84</ele>
        <time>2017-12-16T16:40:39Z</time>
      </trkpt>
      <trkpt lat="42.85167" lon="0.28355">
        <ele>1298.88</ele>
        <time>2017-12-16T16:40:43Z</time>
      </trkpt>
      <trkpt lat="42.85169" lon="0.28363">
        <ele>1298.4</ele>
        <time>2017-12-16T16:40:49Z</time>
      </trkpt>
      <trkpt lat="42.85172" lon="0.28379">
        <ele>1298.4</ele>
        <time>2017-12-16T16:41:02Z</time>
      </trkpt>
      <trkpt lat="42.85172" lon="0.28384">
        <ele>1298.4</ele>
        <time>2017-12-16T16:41:05Z</time>
      </trkpt>
      <trkpt lat="42.85173" lon="0.28397">
        <ele>1298.4</ele>
        <time>2017-12-16T16:41:17Z</time>
      </trkpt>
      <trkpt lat="42.85172" lon="0.28406">
        <ele>1298.4</ele>
        <time>2017-12-16T16:41:24Z</time>
      </trkpt>
      <trkpt lat="42.85171" lon="0.2841">
        <ele>1298.4</ele>
        <time>2017-12-16T16:41:27Z</time>
      </trkpt>
      <trkpt lat="42.85167" lon="0.28428">
        <ele>1296.96</ele>
        <time>2017-12-16T16:41:41Z</time>
      </trkpt>
      <trkpt lat="42.85166" lon="0.28433">
        <ele>1296.48</ele>
        <time>2017-12-16T16:41:46Z</time>
      </trkpt>
      <trkpt lat="42.85161" lon="0.28444">
        <ele>1295.99</ele>
        <time>2017-12-16T16:41:55Z</time>
      </trkpt>
      <trkpt lat="42.85158" lon="0.28452">
        <ele>1294.07</ele>
        <time>2017-12-16T16:42:03Z</time>
      </trkpt>
      <trkpt lat="42.85155" lon="0.28461">
        <ele>1292.63</ele>
        <time>2017-12-16T16:42:11Z</time>
      </trkpt>
      <trkpt lat="42.8515" lon="0.28478">
        <ele>1291.19</ele>
        <time>2017-12-16T16:42:24Z</time>
      </trkpt>
      <trkpt lat="42.85145" lon="0.28494">
        <ele>1290.71</ele>
        <time>2017-12-16T16:42:36Z</time>
      </trkpt>
      <trkpt lat="42.85144" lon="0.28499">
        <ele>1290.23</ele>
        <time>2017-12-16T16:42:40Z</time>
      </trkpt>
      <trkpt lat="42.85141" lon="0.28505">
        <ele>1289.75</ele>
        <time>2017-12-16T16:42:45Z</time>
      </trkpt>
      <trkpt lat="42.8514" lon="0.2851">
        <ele>1289.75</ele>
        <time>2017-12-16T16:42:49Z</time>
      </trkpt>
      <trkpt lat="42.8514" lon="0.28512">
        <ele>1289.27</ele>
        <time>2017-12-16T16:42:51Z</time>
      </trkpt>
      <trkpt lat="42.85139" lon="0.28516">
        <ele>1289.27</ele>
        <time>2017-12-16T16:42:54Z</time>
      </trkpt>
      <trkpt lat="42.85138" lon="0.28521">
        <ele>1289.27</ele>
        <time>2017-12-16T16:43:00Z</time>
      </trkpt>
      <trkpt lat="42.85137" lon="0.2853">
        <ele>1289.27</ele>
        <time>2017-12-16T16:43:06Z</time>
      </trkpt>
      <trkpt lat="42.85135" lon="0.28546">
        <ele>1288.3</ele>
        <time>2017-12-16T16:43:18Z</time>
      </trkpt>
      <trkpt lat="42.85133" lon="0.28549">
        <ele>1287.82</ele>
        <time>2017-12-16T16:43:21Z</time>
      </trkpt>
      <trkpt lat="42.85134" lon="0.28552">
        <ele>1287.82</ele>
        <time>2017-12-16T16:43:23Z</time>
      </trkpt>
      <trkpt lat="42.85133" lon="0.28557">
        <ele>1287.34</ele>
        <time>2017-12-16T16:43:26Z</time>
      </trkpt>
      <trkpt lat="42.85133" lon="0.28567">
        <ele>1286.86</ele>
        <time>2017-12-16T16:43:33Z</time>
      </trkpt>
      <trkpt lat="42.85132" lon="0.28576">
        <ele>1285.9</ele>
        <time>2017-12-16T16:43:39Z</time>
      </trkpt>
      <trkpt lat="42.85131" lon="0.2858">
        <ele>1285.9</ele>
        <time>2017-12-16T16:43:42Z</time>
      </trkpt>
      <trkpt lat="42.85131" lon="0.28583">
        <ele>1287.82</ele>
        <time>2017-12-16T16:43:45Z</time>
      </trkpt>
      <trkpt lat="42.85131" lon="0.28585">
        <ele>1287.82</ele>
        <time>2017-12-16T16:43:47Z</time>
      </trkpt>
      <trkpt lat="42.85129" lon="0.28594">
        <ele>1286.38</ele>
        <time>2017-12-16T16:43:53Z</time>
      </trkpt>
      <trkpt lat="42.85128" lon="0.28602">
        <ele>1286.38</ele>
        <time>2017-12-16T16:43:59Z</time>
      </trkpt>
      <trkpt lat="42.85128" lon="0.28611">
        <ele>1285.9</ele>
        <time>2017-12-16T16:44:07Z</time>
      </trkpt>
      <trkpt lat="42.85125" lon="0.2862">
        <ele>1285.9</ele>
        <time>2017-12-16T16:44:15Z</time>
      </trkpt>
      <trkpt lat="42.85122" lon="0.28636">
        <ele>1285.42</ele>
        <time>2017-12-16T16:44:28Z</time>
      </trkpt>
      <trkpt lat="42.8512" lon="0.28647">
        <ele>1283.5</ele>
        <time>2017-12-16T16:44:39Z</time>
      </trkpt>
      <trkpt lat="42.8512" lon="0.28647">
        <ele>1283.5</ele>
        <time>2017-12-16T16:44:42Z</time>
      </trkpt>
      <trkpt lat="42.85116" lon="0.28659">
        <ele>1282.54</ele>
        <time>2017-12-16T16:44:54Z</time>
      </trkpt>
      <trkpt lat="42.85114" lon="0.28665">
        <ele>1282.06</ele>
        <time>2017-12-16T16:45:00Z</time>
      </trkpt>
      <trkpt lat="42.85113" lon="0.28668">
        <ele>1281.57</ele>
        <time>2017-12-16T16:45:02Z</time>
      </trkpt>
      <trkpt lat="42.85111" lon="0.28673">
        <ele>1281.09</ele>
        <time>2017-12-16T16:45:06Z</time>
      </trkpt>
      <trkpt lat="42.85108" lon="0.28679">
        <ele>1280.61</ele>
        <time>2017-12-16T16:45:11Z</time>
      </trkpt>
      <trkpt lat="42.85101" lon="0.28693">
        <ele>1279.17</ele>
        <time>2017-12-16T16:45:23Z</time>
      </trkpt>
      <trkpt lat="42.85095" lon="0.28704">
        <ele>1276.77</ele>
        <time>2017-12-16T16:45:35Z</time>
      </trkpt>
      <trkpt lat="42.85091" lon="0.28719">
        <ele>1276.29</ele>
        <time>2017-12-16T16:45:47Z</time>
      </trkpt>
      <trkpt lat="42.8509" lon="0.28733">
        <ele>1276.29</ele>
        <time>2017-12-16T16:45:57Z</time>
      </trkpt>
      <trkpt lat="42.8509" lon="0.28739">
        <ele>1275.33</ele>
        <time>2017-12-16T16:46:02Z</time>
      </trkpt>
      <trkpt lat="42.85089" lon="0.28754">
        <ele>1273.88</ele>
        <time>2017-12-16T16:46:15Z</time>
      </trkpt>
      <trkpt lat="42.85088" lon="0.28758">
        <ele>1273.4</ele>
        <time>2017-12-16T16:46:18Z</time>
      </trkpt>
      <trkpt lat="42.85089" lon="0.28762">
        <ele>1273.4</ele>
        <time>2017-12-16T16:46:21Z</time>
      </trkpt>
      <trkpt lat="42.85088" lon="0.28773">
        <ele>1272.92</ele>
        <time>2017-12-16T16:46:30Z</time>
      </trkpt>
      <trkpt lat="42.85087" lon="0.28776">
        <ele>1272.92</ele>
        <time>2017-12-16T16:46:32Z</time>
      </trkpt>
      <trkpt lat="42.85087" lon="0.2878">
        <ele>1272.92</ele>
        <time>2017-12-16T16:46:36Z</time>
      </trkpt>
      <trkpt lat="42.85087" lon="0.28786">
        <ele>1272.44</ele>
        <time>2017-12-16T16:46:41Z</time>
      </trkpt>
      <trkpt lat="42.85087" lon="0.2879">
        <ele>1272.44</ele>
        <time>2017-12-16T16:46:44Z</time>
      </trkpt>
      <trkpt lat="42.85086" lon="0.28794">
        <ele>1272.44</ele>
        <time>2017-12-16T16:46:47Z</time>
      </trkpt>
      <trkpt lat="42.85084" lon="0.28808">
        <ele>1272.44</ele>
        <time>2017-12-16T16:46:58Z</time>
      </trkpt>
      <trkpt lat="42.85084" lon="0.28813">
        <ele>1272.44</ele>
        <time>2017-12-16T16:47:02Z</time>
      </trkpt>
      <trkpt lat="42.85083" lon="0.28818">
        <ele>1272.44</ele>
        <time>2017-12-16T16:47:08Z</time>
      </trkpt>
      <trkpt lat="42.85082" lon="0.28821">
        <ele>1272.44</ele>
        <time>2017-12-16T16:47:10Z</time>
      </trkpt>
      <trkpt lat="42.85081" lon="0.28826">
        <ele>1271.48</ele>
        <time>2017-12-16T16:47:13Z</time>
      </trkpt>
      <trkpt lat="42.85078" lon="0.28841">
        <ele>1271</ele>
        <time>2017-12-16T16:47:25Z</time>
      </trkpt>
      <trkpt lat="42.85078" lon="0.28841">
        <ele>1271</ele>
        <time>2017-12-16T16:47:26Z</time>
      </trkpt>
      <trkpt lat="42.85078" lon="0.28849">
        <ele>1269.56</ele>
        <time>2017-12-16T16:47:31Z</time>
      </trkpt>
      <trkpt lat="42.85077" lon="0.28854">
        <ele>1269.56</ele>
        <time>2017-12-16T16:47:35Z</time>
      </trkpt>
      <trkpt lat="42.85076" lon="0.28864">
        <ele>1270.04</ele>
        <time>2017-12-16T16:47:43Z</time>
      </trkpt>
      <trkpt lat="42.85076" lon="0.28865">
        <ele>1268.12</ele>
        <time>2017-12-16T16:47:44Z</time>
      </trkpt>
      <trkpt lat="42.85076" lon="0.28873">
        <ele>1268.6</ele>
        <time>2017-12-16T16:47:53Z</time>
      </trkpt>
      <trkpt lat="42.85075" lon="0.28887">
        <ele>1265.71</ele>
        <time>2017-12-16T16:48:03Z</time>
      </trkpt>
      <trkpt lat="42.85075" lon="0.28889">
        <ele>1265.71</ele>
        <time>2017-12-16T16:48:05Z</time>
      </trkpt>
      <trkpt lat="42.85073" lon="0.28895">
        <ele>1264.75</ele>
        <time>2017-12-16T16:48:10Z</time>
      </trkpt>
      <trkpt lat="42.85069" lon="0.2891">
        <ele>1263.31</ele>
        <time>2017-12-16T16:48:22Z</time>
      </trkpt>
      <trkpt lat="42.85066" lon="0.28926">
        <ele>1259.46</ele>
        <time>2017-12-16T16:48:33Z</time>
      </trkpt>
      <trkpt lat="42.85065" lon="0.28941">
        <ele>1261.39</ele>
        <time>2017-12-16T16:48:44Z</time>
      </trkpt>
      <trkpt lat="42.85065" lon="0.28943">
        <ele>1259.94</ele>
        <time>2017-12-16T16:48:45Z</time>
      </trkpt>
      <trkpt lat="42.85065" lon="0.28952">
        <ele>1258.98</ele>
        <time>2017-12-16T16:48:52Z</time>
      </trkpt>
      <trkpt lat="42.85064" lon="0.28964">
        <ele>1257.54</ele>
        <time>2017-12-16T16:49:03Z</time>
      </trkpt>
      <trkpt lat="42.85064" lon="0.28963">
        <ele>1257.54</ele>
        <time>2017-12-16T16:49:04Z</time>
      </trkpt>
      <trkpt lat="42.85063" lon="0.28967">
        <ele>1257.54</ele>
        <time>2017-12-16T16:49:07Z</time>
      </trkpt>
      <trkpt lat="42.85061" lon="0.28981">
        <ele>1257.54</ele>
        <time>2017-12-16T16:49:17Z</time>
      </trkpt>
      <trkpt lat="42.85059" lon="0.28995">
        <ele>1256.1</ele>
        <time>2017-12-16T16:49:28Z</time>
      </trkpt>
      <trkpt lat="42.85057" lon="0.29006">
        <ele>1254.66</ele>
        <time>2017-12-16T16:49:38Z</time>
      </trkpt>
      <trkpt lat="42.85053" lon="0.29017">
        <ele>1253.22</ele>
        <time>2017-12-16T16:49:49Z</time>
      </trkpt>
      <trkpt lat="42.85053" lon="0.29019">
        <ele>1253.22</ele>
        <time>2017-12-16T16:49:51Z</time>
      </trkpt>
      <trkpt lat="42.85051" lon="0.29024">
        <ele>1252.74</ele>
        <time>2017-12-16T16:49:55Z</time>
      </trkpt>
      <trkpt lat="42.85052" lon="0.29038">
        <ele>1250.81</ele>
        <time>2017-12-16T16:50:07Z</time>
      </trkpt>
      <trkpt lat="42.85052" lon="0.29048">
        <ele>1250.33</ele>
        <time>2017-12-16T16:50:17Z</time>
      </trkpt>
      <trkpt lat="42.85053" lon="0.2905">
        <ele>1249.85</ele>
        <time>2017-12-16T16:50:19Z</time>
      </trkpt>
      <trkpt lat="42.85055" lon="0.29055">
        <ele>1248.41</ele>
        <time>2017-12-16T16:50:25Z</time>
      </trkpt>
      <trkpt lat="42.85057" lon="0.29059">
        <ele>1247.45</ele>
        <time>2017-12-16T16:50:30Z</time>
      </trkpt>
      <trkpt lat="42.85059" lon="0.29064">
        <ele>1244.08</ele>
        <time>2017-12-16T16:50:38Z</time>
      </trkpt>
      <trkpt lat="42.85059" lon="0.29065">
        <ele>1245.53</ele>
        <time>2017-12-16T16:50:42Z</time>
      </trkpt>
      <trkpt lat="42.85061" lon="0.29067">
        <ele>1246.01</ele>
        <time>2017-12-16T16:50:55Z</time>
      </trkpt>
      <trkpt lat="42.85059" lon="0.29066">
        <ele>1244.56</ele>
        <time>2017-12-16T16:51:01Z</time>
      </trkpt>
      <trkpt lat="42.85056" lon="0.29064">
        <ele>1243.12</ele>
        <time>2017-12-16T16:51:10Z</time>
      </trkpt>
      <trkpt lat="42.85051" lon="0.29062">
        <ele>1241.2</ele>
        <time>2017-12-16T16:51:20Z</time>
      </trkpt>
      <trkpt lat="42.85053" lon="0.29068">
        <ele>1240.72</ele>
        <time>2017-12-16T16:51:31Z</time>
      </trkpt>
      <trkpt lat="42.85053" lon="0.29071">
        <ele>1240.72</ele>
        <time>2017-12-16T16:52:00Z</time>
      </trkpt>
      <trkpt lat="42.85056" lon="0.29069">
        <ele>1241.68</ele>
        <time>2017-12-16T16:52:37Z</time>
      </trkpt>
      <trkpt lat="42.85054" lon="0.29073">
        <ele>1241.68</ele>
        <time>2017-12-16T16:53:02Z</time>
      </trkpt>
      <trkpt lat="42.85055" lon="0.29073">
        <ele>1241.68</ele>
        <time>2017-12-16T16:53:46Z</time>
      </trkpt>
      <trkpt lat="42.85055" lon="0.29067">
        <ele>1240.72</ele>
        <time>2017-12-16T16:54:07Z</time>
      </trkpt>
      <trkpt lat="42.85055" lon="0.29065">
        <ele>1242.16</ele>
        <time>2017-12-16T16:54:10Z</time>
      </trkpt>
      <trkpt lat="42.85059" lon="0.29067">
        <ele>1243.6</ele>
        <time>2017-12-16T16:54:21Z</time>
      </trkpt>
      <trkpt lat="42.85061" lon="0.2907">
        <ele>1244.56</ele>
        <time>2017-12-16T16:54:32Z</time>
      </trkpt>
      <trkpt lat="42.85065" lon="0.29081">
        <ele>1243.6</ele>
        <time>2017-12-16T16:54:44Z</time>
      </trkpt>
      <trkpt lat="42.85065" lon="0.29089">
        <ele>1242.64</ele>
        <time>2017-12-16T16:54:57Z</time>
      </trkpt>
      <trkpt lat="42.85067" lon="0.29092">
        <ele>1242.16</ele>
        <time>2017-12-16T16:55:16Z</time>
      </trkpt>
      <trkpt lat="42.85072" lon="0.29101">
        <ele>1240.72</ele>
        <time>2017-12-16T16:55:26Z</time>
      </trkpt>
      <trkpt lat="42.8508" lon="0.29118">
        <ele>1237.83</ele>
        <time>2017-12-16T16:55:39Z</time>
      </trkpt>
      <trkpt lat="42.85076" lon="0.29125">
        <ele>1236.39</ele>
        <time>2017-12-16T16:55:56Z</time>
      </trkpt>
      <trkpt lat="42.85078" lon="0.29132">
        <ele>1236.39</ele>
        <time>2017-12-16T16:56:08Z</time>
      </trkpt>
      <trkpt lat="42.85088" lon="0.29151">
        <ele>1233.03</ele>
        <time>2017-12-16T16:56:24Z</time>
      </trkpt>
      <trkpt lat="42.85094" lon="0.29169">
        <ele>1230.62</ele>
        <time>2017-12-16T16:56:35Z</time>
      </trkpt>
      <trkpt lat="42.85096" lon="0.29171">
        <ele>1230.14</ele>
        <time>2017-12-16T16:56:37Z</time>
      </trkpt>
      <trkpt lat="42.85102" lon="0.29191">
        <ele>1227.26</ele>
        <time>2017-12-16T16:56:50Z</time>
      </trkpt>
      <trkpt lat="42.85106" lon="0.29212">
        <ele>1225.34</ele>
        <time>2017-12-16T16:57:04Z</time>
      </trkpt>
      <trkpt lat="42.85111" lon="0.2923">
        <ele>1222.93</ele>
        <time>2017-12-16T16:57:16Z</time>
      </trkpt>
      <trkpt lat="42.85111" lon="0.29236">
        <ele>1222.45</ele>
        <time>2017-12-16T16:57:20Z</time>
      </trkpt>
      <trkpt lat="42.85114" lon="0.29254">
        <ele>1220.05</ele>
        <time>2017-12-16T16:57:31Z</time>
      </trkpt>
      <trkpt lat="42.85117" lon="0.29276">
        <ele>1217.17</ele>
        <time>2017-12-16T16:57:45Z</time>
      </trkpt>
      <trkpt lat="42.85121" lon="0.29296">
        <ele>1216.69</ele>
        <time>2017-12-16T16:57:59Z</time>
      </trkpt>
      <trkpt lat="42.85122" lon="0.29313">
        <ele>1215.72</ele>
        <time>2017-12-16T16:58:12Z</time>
      </trkpt>
      <trkpt lat="42.85123" lon="0.29315">
        <ele>1215.24</ele>
        <time>2017-12-16T16:58:47Z</time>
      </trkpt>
      <trkpt lat="42.85119" lon="0.29318">
        <ele>1215.24</ele>
        <time>2017-12-16T16:59:36Z</time>
      </trkpt>
      <trkpt lat="42.85119" lon="0.29318">
        <ele>1215.72</ele>
        <time>2017-12-16T17:00:22Z</time>
      </trkpt>
      <trkpt lat="42.85119" lon="0.29315">
        <ele>1215.72</ele>
        <time>2017-12-16T17:01:00Z</time>
      </trkpt>
      <trkpt lat="42.8512" lon="0.29315">
        <ele>1215.72</ele>
        <time>2017-12-16T17:01:35Z</time>
      </trkpt>
      <trkpt lat="42.85123" lon="0.29315">
        <ele>1216.21</ele>
        <time>2017-12-16T17:02:11Z</time>
      </trkpt>
      <trkpt lat="42.85125" lon="0.29318">
        <ele>1215.72</ele>
        <time>2017-12-16T17:02:33Z</time>
      </trkpt>
      <trkpt lat="42.85134" lon="0.29334">
        <ele>1214.76</ele>
        <time>2017-12-16T17:02:47Z</time>
      </trkpt>
      <trkpt lat="42.85137" lon="0.2934">
        <ele>1214.76</ele>
        <time>2017-12-16T17:02:52Z</time>
      </trkpt>
      <trkpt lat="42.8514" lon="0.29349">
        <ele>1214.76</ele>
        <time>2017-12-16T17:02:59Z</time>
      </trkpt>
      <trkpt lat="42.85144" lon="0.29365">
        <ele>1214.76</ele>
        <time>2017-12-16T17:03:11Z</time>
      </trkpt>
      <trkpt lat="42.85146" lon="0.29381">
        <ele>1214.76</ele>
        <time>2017-12-16T17:03:24Z</time>
      </trkpt>
      <trkpt lat="42.85148" lon="0.29388">
        <ele>1214.76</ele>
        <time>2017-12-16T17:03:31Z</time>
      </trkpt>
      <trkpt lat="42.8515" lon="0.29394">
        <ele>1214.28</ele>
        <time>2017-12-16T17:03:42Z</time>
      </trkpt>
      <trkpt lat="42.85152" lon="0.29398">
        <ele>1214.76</ele>
        <time>2017-12-16T17:04:24Z</time>
      </trkpt>
      <trkpt lat="42.85152" lon="0.29407">
        <ele>1214.76</ele>
        <time>2017-12-16T17:04:31Z</time>
      </trkpt>
      <trkpt lat="42.8515" lon="0.29425">
        <ele>1214.76</ele>
        <time>2017-12-16T17:04:45Z</time>
      </trkpt>
      <trkpt lat="42.8515" lon="0.29424">
        <ele>1214.76</ele>
        <time>2017-12-16T17:04:48Z</time>
      </trkpt>
      <trkpt lat="42.8515" lon="0.29429">
        <ele>1214.76</ele>
        <time>2017-12-16T17:04:53Z</time>
      </trkpt>
      <trkpt lat="42.85148" lon="0.29446">
        <ele>1215.72</ele>
        <time>2017-12-16T17:05:07Z</time>
      </trkpt>
      <trkpt lat="42.85147" lon="0.29455">
        <ele>1215.72</ele>
        <time>2017-12-16T17:05:22Z</time>
      </trkpt>
      <trkpt lat="42.85146" lon="0.29463">
        <ele>1215.72</ele>
        <time>2017-12-16T17:05:33Z</time>
      </trkpt>
      <trkpt lat="42.85146" lon="0.29464">
        <ele>1214.28</ele>
        <time>2017-12-16T17:06:01Z</time>
      </trkpt>
      <trkpt lat="42.85146" lon="0.29463">
        <ele>1213.8</ele>
        <time>2017-12-16T17:06:27Z</time>
      </trkpt>
      <trkpt lat="42.85146" lon="0.29462">
        <ele>1213.8</ele>
        <time>2017-12-16T17:06:43Z</time>
      </trkpt>
      <trkpt lat="42.85146" lon="0.29476">
        <ele>1213.32</ele>
        <time>2017-12-16T17:06:55Z</time>
      </trkpt>
      <trkpt lat="42.85145" lon="0.29482">
        <ele>1212.84</ele>
        <time>2017-12-16T17:07:07Z</time>
      </trkpt>
      <trkpt lat="42.85143" lon="0.29483">
        <ele>1212.36</ele>
        <time>2017-12-16T17:07:26Z</time>
      </trkpt>
      <trkpt lat="42.85143" lon="0.29486">
        <ele>1211.88</ele>
        <time>2017-12-16T17:07:39Z</time>
      </trkpt>
      <trkpt lat="42.85141" lon="0.29497">
        <ele>1211.88</ele>
        <time>2017-12-16T17:07:51Z</time>
      </trkpt>
      <trkpt lat="42.85142" lon="0.29511">
        <ele>1211.4</ele>
        <time>2017-12-16T17:08:05Z</time>
      </trkpt>
      <trkpt lat="42.85142" lon="0.29521">
        <ele>1212.84</ele>
        <time>2017-12-16T17:08:15Z</time>
      </trkpt>
      <trkpt lat="42.85143" lon="0.29536">
        <ele>1214.76</ele>
        <time>2017-12-16T17:08:27Z</time>
      </trkpt>
      <trkpt lat="42.85139" lon="0.29553">
        <ele>1216.21</ele>
        <time>2017-12-16T17:08:39Z</time>
      </trkpt>
      <trkpt lat="42.85128" lon="0.29568">
        <ele>1213.32</ele>
        <time>2017-12-16T17:08:55Z</time>
      </trkpt>
      <trkpt lat="42.85126" lon="0.29571">
        <ele>1212.84</ele>
        <time>2017-12-16T17:08:58Z</time>
      </trkpt>
      <trkpt lat="42.85122" lon="0.29593">
        <ele>1211.88</ele>
        <time>2017-12-16T17:09:15Z</time>
      </trkpt>
      <trkpt lat="42.85121" lon="0.29596">
        <ele>1211.88</ele>
        <time>2017-12-16T17:09:17Z</time>
      </trkpt>
      <trkpt lat="42.85117" lon="0.29609">
        <ele>1211.4</ele>
        <time>2017-12-16T17:09:29Z</time>
      </trkpt>
      <trkpt lat="42.85113" lon="0.29609">
        <ele>1211.4</ele>
        <time>2017-12-16T17:09:50Z</time>
      </trkpt>
      <trkpt lat="42.85111" lon="0.29611">
        <ele>1210.92</ele>
        <time>2017-12-16T17:10:15Z</time>
      </trkpt>
      <trkpt lat="42.85112" lon="0.29614">
        <ele>1210.92</ele>
        <time>2017-12-16T17:10:17Z</time>
      </trkpt>
      <trkpt lat="42.8511" lon="0.29624">
        <ele>1210.44</ele>
        <time>2017-12-16T17:10:28Z</time>
      </trkpt>
      <trkpt lat="42.85111" lon="0.29635">
        <ele>1210.44</ele>
        <time>2017-12-16T17:10:41Z</time>
      </trkpt>
      <trkpt lat="42.85111" lon="0.29639">
        <ele>1210.44</ele>
        <time>2017-12-16T17:10:55Z</time>
      </trkpt>
      <trkpt lat="42.8511" lon="0.29642">
        <ele>1210.44</ele>
        <time>2017-12-16T17:10:58Z</time>
      </trkpt>
      <trkpt lat="42.85112" lon="0.29647">
        <ele>1210.44</ele>
        <time>2017-12-16T17:11:10Z</time>
      </trkpt>
      <trkpt lat="42.85112" lon="0.29648">
        <ele>1210.44</ele>
        <time>2017-12-16T17:11:26Z</time>
      </trkpt>
      <trkpt lat="42.85112" lon="0.29652">
        <ele>1209.96</ele>
        <time>2017-12-16T17:11:42Z</time>
      </trkpt>
      <trkpt lat="42.85113" lon="0.29649">
        <ele>1209.96</ele>
        <time>2017-12-16T17:12:01Z</time>
      </trkpt>
      <trkpt lat="42.85112" lon="0.29649">
        <ele>1211.4</ele>
        <time>2017-12-16T17:12:24Z</time>
      </trkpt>
      <trkpt lat="42.85114" lon="0.29649">
        <ele>1211.4</ele>
        <time>2017-12-16T17:12:48Z</time>
      </trkpt>
      <trkpt lat="42.85117" lon="0.29648">
        <ele>1209.48</ele>
        <time>2017-12-16T17:13:17Z</time>
      </trkpt>
      <trkpt lat="42.85116" lon="0.29647">
        <ele>1209.96</ele>
        <time>2017-12-16T17:13:43Z</time>
      </trkpt>
      <trkpt lat="42.85113" lon="0.29649">
        <ele>1209.96</ele>
        <time>2017-12-16T17:14:02Z</time>
      </trkpt>
      <trkpt lat="42.85112" lon="0.29645">
        <ele>1209.96</ele>
        <time>2017-12-16T17:14:21Z</time>
      </trkpt>
      <trkpt lat="42.85113" lon="0.29643">
        <ele>1210.92</ele>
        <time>2017-12-16T17:14:23Z</time>
      </trkpt>
      <trkpt lat="42.85112" lon="0.2964">
        <ele>1210.92</ele>
        <time>2017-12-16T17:14:39Z</time>
      </trkpt>
      <trkpt lat="42.85109" lon="0.29642">
        <ele>1211.4</ele>
        <time>2017-12-16T17:15:02Z</time>
      </trkpt>
      <trkpt lat="42.8511" lon="0.29642">
        <ele>1211.88</ele>
        <time>2017-12-16T17:15:32Z</time>
      </trkpt>
      <trkpt lat="42.85111" lon="0.29647">
        <ele>1210.44</ele>
        <time>2017-12-16T17:16:04Z</time>
      </trkpt>
      <trkpt lat="42.85109" lon="0.29645">
        <ele>1210.92</ele>
        <time>2017-12-16T17:16:19Z</time>
      </trkpt>
      <trkpt lat="42.85108" lon="0.29643">
        <ele>1212.36</ele>
        <time>2017-12-16T17:16:25Z</time>
      </trkpt>
      <trkpt lat="42.85106" lon="0.29645">
        <ele>1209.96</ele>
        <time>2017-12-16T17:16:47Z</time>
      </trkpt>
    </trkseg>
  </trk>
</gpx>